<?xml version="1.0" encoding="UTF-8" standalone="no" ?>
<gpx xmlns="http://www.topografix.com/GPX/1/1" xmlns:xsi="http://www.w3.org/2001/XMLSchema-instance" xsi:schemaLocation="http://www.topografix.com/GPX/1/1 http://www.topografix.com/GPX/1/1/gpx.xsd" version="1.1" creator="VisuGPX - https://www.visugpx.com">
  <metadata>
    <name>Boucle Saverne 15 km</name>
    <desc><![CDATA[Une boucle de 15 km au départ de Saverne]]></desc>
  </metadata>
  <trk>
    <name><![CDATA[ADi2010/06/22_18:23]]></name>
    <trkseg>
      <trkpt lat="48.73346" lon="7.36161">
        <ele>223.652451</ele>
        <time>2010-06-22T16:27:39Z</time>
      </trkpt>
      <trkpt lat="48.73347" lon="7.36129">
        <ele>223.550888</ele>
        <time>2010-06-22T16:27:42Z</time>
      </trkpt>
      <trkpt lat="48.73363" lon="7.36124">
        <ele>222.375107</ele>
        <time>2010-06-22T16:27:45Z</time>
      </trkpt>
      <trkpt lat="48.7338" lon="7.36128">
        <ele>221.652451</ele>
        <time>2010-06-22T16:27:48Z</time>
      </trkpt>
      <trkpt lat="48.73397" lon="7.36129">
        <ele>220.925888</ele>
        <time>2010-06-22T16:27:51Z</time>
      </trkpt>
      <trkpt lat="48.73411" lon="7.36128">
        <ele>221.191513</ele>
        <time>2010-06-22T16:27:55Z</time>
      </trkpt>
      <trkpt lat="48.73425" lon="7.36124">
        <ele>221.105576</ele>
        <time>2010-06-22T16:28:00Z</time>
      </trkpt>
      <trkpt lat="48.73439" lon="7.36121">
        <ele>221.687607</ele>
        <time>2010-06-22T16:28:03Z</time>
      </trkpt>
      <trkpt lat="48.73454" lon="7.36117">
        <ele>222.550888</ele>
        <time>2010-06-22T16:28:06Z</time>
      </trkpt>
      <trkpt lat="48.73469" lon="7.36114">
        <ele>223.382919</ele>
        <time>2010-06-22T16:28:09Z</time>
      </trkpt>
      <trkpt lat="48.73484" lon="7.36111">
        <ele>224.070419</ele>
        <time>2010-06-22T16:28:12Z</time>
      </trkpt>
      <trkpt lat="48.735" lon="7.36107">
        <ele>225.054794</ele>
        <time>2010-06-22T16:28:15Z</time>
      </trkpt>
      <trkpt lat="48.73515" lon="7.36101">
        <ele>225.500107</ele>
        <time>2010-06-22T16:28:18Z</time>
      </trkpt>
      <trkpt lat="48.7353" lon="7.36097">
        <ele>226.156357</ele>
        <time>2010-06-22T16:28:21Z</time>
      </trkpt>
      <trkpt lat="48.73545" lon="7.36092">
        <ele>226.464951</ele>
        <time>2010-06-22T16:28:24Z</time>
      </trkpt>
      <trkpt lat="48.7356" lon="7.36088">
        <ele>226.902451</ele>
        <time>2010-06-22T16:28:27Z</time>
      </trkpt>
      <trkpt lat="48.73575" lon="7.36083">
        <ele>227.668076</ele>
        <time>2010-06-22T16:28:30Z</time>
      </trkpt>
      <trkpt lat="48.7359" lon="7.36078">
        <ele>228.007919</ele>
        <time>2010-06-22T16:28:33Z</time>
      </trkpt>
      <trkpt lat="48.73607" lon="7.36074">
        <ele>228.804794</ele>
        <time>2010-06-22T16:28:37Z</time>
      </trkpt>
      <trkpt lat="48.73621" lon="7.36069">
        <ele>228.925888</ele>
        <time>2010-06-22T16:28:41Z</time>
      </trkpt>
      <trkpt lat="48.73635" lon="7.36064">
        <ele>228.066513</ele>
        <time>2010-06-22T16:28:45Z</time>
      </trkpt>
      <trkpt lat="48.73649" lon="7.36068">
        <ele>226.925888</ele>
        <time>2010-06-22T16:28:48Z</time>
      </trkpt>
      <trkpt lat="48.73666" lon="7.3608">
        <ele>225.250107</ele>
        <time>2010-06-22T16:28:51Z</time>
      </trkpt>
      <trkpt lat="48.73678" lon="7.36089">
        <ele>224.234482</ele>
        <time>2010-06-22T16:28:53Z</time>
      </trkpt>
      <trkpt lat="48.73692" lon="7.36098">
        <ele>222.828232</ele>
        <time>2010-06-22T16:28:55Z</time>
      </trkpt>
      <trkpt lat="48.73707" lon="7.36109">
        <ele>221.449326</ele>
        <time>2010-06-22T16:28:57Z</time>
      </trkpt>
      <trkpt lat="48.73722" lon="7.36119">
        <ele>219.937607</ele>
        <time>2010-06-22T16:28:59Z</time>
      </trkpt>
      <trkpt lat="48.73737" lon="7.36131">
        <ele>218.359482</ele>
        <time>2010-06-22T16:29:02Z</time>
      </trkpt>
      <trkpt lat="48.73752" lon="7.36125">
        <ele>218.363388</ele>
        <time>2010-06-22T16:29:06Z</time>
      </trkpt>
      <trkpt lat="48.7376" lon="7.36105">
        <ele>221.140732</ele>
        <time>2010-06-22T16:29:12Z</time>
      </trkpt>
      <trkpt lat="48.73766" lon="7.36083">
        <ele>222.687607</ele>
        <time>2010-06-22T16:29:17Z</time>
      </trkpt>
      <trkpt lat="48.73771" lon="7.36064">
        <ele>223.683701</ele>
        <time>2010-06-22T16:29:21Z</time>
      </trkpt>
      <trkpt lat="48.73776" lon="7.36043">
        <ele>224.386826</ele>
        <time>2010-06-22T16:29:25Z</time>
      </trkpt>
      <trkpt lat="48.73783" lon="7.36024">
        <ele>224.949326</ele>
        <time>2010-06-22T16:29:29Z</time>
      </trkpt>
      <trkpt lat="48.73788" lon="7.36003">
        <ele>225.367294</ele>
        <time>2010-06-22T16:29:33Z</time>
      </trkpt>
      <trkpt lat="48.73794" lon="7.35982">
        <ele>225.601669</ele>
        <time>2010-06-22T16:29:37Z</time>
      </trkpt>
      <trkpt lat="48.73801" lon="7.35961">
        <ele>225.390732</ele>
        <time>2010-06-22T16:29:41Z</time>
      </trkpt>
      <trkpt lat="48.73809" lon="7.35942">
        <ele>224.711044</ele>
        <time>2010-06-22T16:29:47Z</time>
      </trkpt>
      <trkpt lat="48.73824" lon="7.35953">
        <ele>223.773544</ele>
        <time>2010-06-22T16:29:54Z</time>
      </trkpt>
      <trkpt lat="48.73835" lon="7.35965">
        <ele>222.804794</ele>
        <time>2010-06-22T16:29:57Z</time>
      </trkpt>
      <trkpt lat="48.73849" lon="7.3598">
        <ele>221.570419</ele>
        <time>2010-06-22T16:30:00Z</time>
      </trkpt>
      <trkpt lat="48.73864" lon="7.35997">
        <ele>220.371201</ele>
        <time>2010-06-22T16:30:03Z</time>
      </trkpt>
      <trkpt lat="48.73874" lon="7.3601">
        <ele>219.074326</ele>
        <time>2010-06-22T16:30:05Z</time>
      </trkpt>
      <trkpt lat="48.73886" lon="7.36022">
        <ele>218.289169</ele>
        <time>2010-06-22T16:30:07Z</time>
      </trkpt>
      <trkpt lat="48.73898" lon="7.36035">
        <ele>217.109482</ele>
        <time>2010-06-22T16:30:09Z</time>
      </trkpt>
      <trkpt lat="48.7391" lon="7.36049">
        <ele>216.429794</ele>
        <time>2010-06-22T16:30:11Z</time>
      </trkpt>
      <trkpt lat="48.73923" lon="7.36062">
        <ele>214.902451</ele>
        <time>2010-06-22T16:30:13Z</time>
      </trkpt>
      <trkpt lat="48.73936" lon="7.36074">
        <ele>214.066513</ele>
        <time>2010-06-22T16:30:15Z</time>
      </trkpt>
      <trkpt lat="48.73949" lon="7.36087">
        <ele>212.796982</ele>
        <time>2010-06-22T16:30:17Z</time>
      </trkpt>
      <trkpt lat="48.73961" lon="7.36101">
        <ele>211.445419</ele>
        <time>2010-06-22T16:30:19Z</time>
      </trkpt>
      <trkpt lat="48.73975" lon="7.36117">
        <ele>210.386826</ele>
        <time>2010-06-22T16:30:22Z</time>
      </trkpt>
      <trkpt lat="48.73992" lon="7.36115">
        <ele>208.941513</ele>
        <time>2010-06-22T16:30:26Z</time>
      </trkpt>
      <trkpt lat="48.74001" lon="7.36097">
        <ele>207.820419</ele>
        <time>2010-06-22T16:30:29Z</time>
      </trkpt>
      <trkpt lat="48.74013" lon="7.36077">
        <ele>206.984482</ele>
        <time>2010-06-22T16:30:32Z</time>
      </trkpt>
      <trkpt lat="48.74027" lon="7.36055">
        <ele>205.535263</ele>
        <time>2010-06-22T16:30:35Z</time>
      </trkpt>
      <trkpt lat="48.74038" lon="7.36042">
        <ele>204.543076</ele>
        <time>2010-06-22T16:30:37Z</time>
      </trkpt>
      <trkpt lat="48.7405" lon="7.3603">
        <ele>202.781357</ele>
        <time>2010-06-22T16:30:39Z</time>
      </trkpt>
      <trkpt lat="48.74065" lon="7.36014">
        <ele>202.445419</ele>
        <time>2010-06-22T16:30:42Z</time>
      </trkpt>
      <trkpt lat="48.74077" lon="7.36">
        <ele>201.711044</ele>
        <time>2010-06-22T16:30:45Z</time>
      </trkpt>
      <trkpt lat="48.74089" lon="7.35982">
        <ele>201.445419</ele>
        <time>2010-06-22T16:30:49Z</time>
      </trkpt>
      <trkpt lat="48.74089" lon="7.35959">
        <ele>201.722763</ele>
        <time>2010-06-22T16:30:59Z</time>
      </trkpt>
      <trkpt lat="48.74078" lon="7.35942">
        <ele>203.480576</ele>
        <time>2010-06-22T16:31:02Z</time>
      </trkpt>
      <trkpt lat="48.74072" lon="7.3592">
        <ele>204.859482</ele>
        <time>2010-06-22T16:31:05Z</time>
      </trkpt>
      <trkpt lat="48.74073" lon="7.35895">
        <ele>205.363388</ele>
        <time>2010-06-22T16:31:08Z</time>
      </trkpt>
      <trkpt lat="48.74073" lon="7.35869">
        <ele>205.859482</ele>
        <time>2010-06-22T16:31:11Z</time>
      </trkpt>
      <trkpt lat="48.74074" lon="7.35842">
        <ele>204.984482</ele>
        <time>2010-06-22T16:31:14Z</time>
      </trkpt>
      <trkpt lat="48.74075" lon="7.35816">
        <ele>204.867294</ele>
        <time>2010-06-22T16:31:17Z</time>
      </trkpt>
      <trkpt lat="48.74082" lon="7.35799">
        <ele>203.132919</ele>
        <time>2010-06-22T16:31:40Z</time>
      </trkpt>
      <trkpt lat="48.74082" lon="7.35821">
        <ele>203.339951</ele>
        <time>2010-06-22T16:31:52Z</time>
      </trkpt>
      <trkpt lat="48.74081" lon="7.35842">
        <ele>202.871201</ele>
        <time>2010-06-22T16:31:56Z</time>
      </trkpt>
      <trkpt lat="48.74081" lon="7.35869">
        <ele>201.550888</ele>
        <time>2010-06-22T16:32:00Z</time>
      </trkpt>
      <trkpt lat="48.74082" lon="7.3589">
        <ele>199.875107</ele>
        <time>2010-06-22T16:32:03Z</time>
      </trkpt>
      <trkpt lat="48.74087" lon="7.35871">
        <ele>198.214951</ele>
        <time>2010-06-22T16:32:18Z</time>
      </trkpt>
      <trkpt lat="48.74086" lon="7.35849">
        <ele>197.664169</ele>
        <time>2010-06-22T16:32:21Z</time>
      </trkpt>
      <trkpt lat="48.74085" lon="7.35828">
        <ele>197.039169</ele>
        <time>2010-06-22T16:32:24Z</time>
      </trkpt>
      <trkpt lat="48.74085" lon="7.35805">
        <ele>197.160263</ele>
        <time>2010-06-22T16:32:27Z</time>
      </trkpt>
      <trkpt lat="48.74087" lon="7.35778">
        <ele>197.043076</ele>
        <time>2010-06-22T16:32:30Z</time>
      </trkpt>
      <trkpt lat="48.74088" lon="7.35749">
        <ele>197.617294</ele>
        <time>2010-06-22T16:32:33Z</time>
      </trkpt>
      <trkpt lat="48.74089" lon="7.35718">
        <ele>198.254013</ele>
        <time>2010-06-22T16:32:36Z</time>
      </trkpt>
      <trkpt lat="48.74089" lon="7.35696">
        <ele>198.324326</ele>
        <time>2010-06-22T16:32:38Z</time>
      </trkpt>
      <trkpt lat="48.7409" lon="7.35675">
        <ele>197.664169</ele>
        <time>2010-06-22T16:32:40Z</time>
      </trkpt>
      <trkpt lat="48.74091" lon="7.35655">
        <ele>197.125107</ele>
        <time>2010-06-22T16:32:42Z</time>
      </trkpt>
      <trkpt lat="48.7409" lon="7.35634">
        <ele>197.574326</ele>
        <time>2010-06-22T16:32:44Z</time>
      </trkpt>
      <trkpt lat="48.74089" lon="7.35613">
        <ele>198.293076</ele>
        <time>2010-06-22T16:32:46Z</time>
      </trkpt>
      <trkpt lat="48.74089" lon="7.35591">
        <ele>198.367294</ele>
        <time>2010-06-22T16:32:48Z</time>
      </trkpt>
      <trkpt lat="48.7409" lon="7.3557">
        <ele>198.281357</ele>
        <time>2010-06-22T16:32:50Z</time>
      </trkpt>
      <trkpt lat="48.74091" lon="7.35539">
        <ele>198.027451</ele>
        <time>2010-06-22T16:32:53Z</time>
      </trkpt>
      <trkpt lat="48.74092" lon="7.35519">
        <ele>198.214951</ele>
        <time>2010-06-22T16:32:55Z</time>
      </trkpt>
      <trkpt lat="48.74092" lon="7.35497">
        <ele>198.214951</ele>
        <time>2010-06-22T16:32:57Z</time>
      </trkpt>
      <trkpt lat="48.74093" lon="7.35473">
        <ele>197.277451</ele>
        <time>2010-06-22T16:32:59Z</time>
      </trkpt>
      <trkpt lat="48.74094" lon="7.3545">
        <ele>197.140732</ele>
        <time>2010-06-22T16:33:01Z</time>
      </trkpt>
      <trkpt lat="48.74094" lon="7.35428">
        <ele>197.054794</ele>
        <time>2010-06-22T16:33:03Z</time>
      </trkpt>
      <trkpt lat="48.74095" lon="7.35405">
        <ele>197.105576</ele>
        <time>2010-06-22T16:33:05Z</time>
      </trkpt>
      <trkpt lat="48.74096" lon="7.35383">
        <ele>197.039169</ele>
        <time>2010-06-22T16:33:07Z</time>
      </trkpt>
      <trkpt lat="48.74096" lon="7.35361">
        <ele>196.863388</ele>
        <time>2010-06-22T16:33:09Z</time>
      </trkpt>
      <trkpt lat="48.74097" lon="7.35339">
        <ele>196.601669</ele>
        <time>2010-06-22T16:33:11Z</time>
      </trkpt>
      <trkpt lat="48.74097" lon="7.35317">
        <ele>196.554794</ele>
        <time>2010-06-22T16:33:13Z</time>
      </trkpt>
      <trkpt lat="48.74098" lon="7.35294">
        <ele>196.269638</ele>
        <time>2010-06-22T16:33:15Z</time>
      </trkpt>
      <trkpt lat="48.74098" lon="7.35272">
        <ele>196.523544</ele>
        <time>2010-06-22T16:33:17Z</time>
      </trkpt>
      <trkpt lat="48.74098" lon="7.35248">
        <ele>196.191513</ele>
        <time>2010-06-22T16:33:19Z</time>
      </trkpt>
      <trkpt lat="48.74099" lon="7.35226">
        <ele>195.906357</ele>
        <time>2010-06-22T16:33:21Z</time>
      </trkpt>
      <trkpt lat="48.74098" lon="7.35203">
        <ele>195.976669</ele>
        <time>2010-06-22T16:33:23Z</time>
      </trkpt>
      <trkpt lat="48.74097" lon="7.35182">
        <ele>196.242294</ele>
        <time>2010-06-22T16:33:25Z</time>
      </trkpt>
      <trkpt lat="48.74095" lon="7.35159">
        <ele>195.855576</ele>
        <time>2010-06-22T16:33:27Z</time>
      </trkpt>
      <trkpt lat="48.74093" lon="7.35137">
        <ele>195.789169</ele>
        <time>2010-06-22T16:33:29Z</time>
      </trkpt>
      <trkpt lat="48.74089" lon="7.35115">
        <ele>195.472763</ele>
        <time>2010-06-22T16:33:31Z</time>
      </trkpt>
      <trkpt lat="48.74085" lon="7.35093">
        <ele>195.261826</ele>
        <time>2010-06-22T16:33:33Z</time>
      </trkpt>
      <trkpt lat="48.74079" lon="7.35072">
        <ele>195.437607</ele>
        <time>2010-06-22T16:33:35Z</time>
      </trkpt>
      <trkpt lat="48.74072" lon="7.35052">
        <ele>195.586044</ele>
        <time>2010-06-22T16:33:37Z</time>
      </trkpt>
      <trkpt lat="48.74064" lon="7.35033">
        <ele>195.445419</ele>
        <time>2010-06-22T16:33:39Z</time>
      </trkpt>
      <trkpt lat="48.74057" lon="7.35014">
        <ele>195.191513</ele>
        <time>2010-06-22T16:33:41Z</time>
      </trkpt>
      <trkpt lat="48.74049" lon="7.34996">
        <ele>194.972763</ele>
        <time>2010-06-22T16:33:43Z</time>
      </trkpt>
      <trkpt lat="48.7404" lon="7.34978">
        <ele>194.812607</ele>
        <time>2010-06-22T16:33:45Z</time>
      </trkpt>
      <trkpt lat="48.7403" lon="7.34961">
        <ele>194.789169</ele>
        <time>2010-06-22T16:33:47Z</time>
      </trkpt>
      <trkpt lat="48.7402" lon="7.34946">
        <ele>194.605576</ele>
        <time>2010-06-22T16:33:49Z</time>
      </trkpt>
      <trkpt lat="48.74009" lon="7.34933">
        <ele>194.582138</ele>
        <time>2010-06-22T16:33:51Z</time>
      </trkpt>
      <trkpt lat="48.73997" lon="7.3492">
        <ele>194.445419</ele>
        <time>2010-06-22T16:33:53Z</time>
      </trkpt>
      <trkpt lat="48.73985" lon="7.34908">
        <ele>194.336044</ele>
        <time>2010-06-22T16:33:55Z</time>
      </trkpt>
      <trkpt lat="48.73974" lon="7.34895">
        <ele>194.148544</ele>
        <time>2010-06-22T16:33:57Z</time>
      </trkpt>
      <trkpt lat="48.73962" lon="7.34883">
        <ele>193.914169</ele>
        <time>2010-06-22T16:33:59Z</time>
      </trkpt>
      <trkpt lat="48.73951" lon="7.34871">
        <ele>193.734482</ele>
        <time>2010-06-22T16:34:01Z</time>
      </trkpt>
      <trkpt lat="48.7394" lon="7.34859">
        <ele>193.824326</ele>
        <time>2010-06-22T16:34:03Z</time>
      </trkpt>
      <trkpt lat="48.73928" lon="7.34848">
        <ele>193.843857</ele>
        <time>2010-06-22T16:34:05Z</time>
      </trkpt>
      <trkpt lat="48.73917" lon="7.34836">
        <ele>194.273544</ele>
        <time>2010-06-22T16:34:07Z</time>
      </trkpt>
      <trkpt lat="48.739" lon="7.3482">
        <ele>194.304794</ele>
        <time>2010-06-22T16:34:10Z</time>
      </trkpt>
      <trkpt lat="48.73889" lon="7.34808">
        <ele>194.621201</ele>
        <time>2010-06-22T16:34:12Z</time>
      </trkpt>
      <trkpt lat="48.73872" lon="7.34791">
        <ele>194.976669</ele>
        <time>2010-06-22T16:34:15Z</time>
      </trkpt>
      <trkpt lat="48.73856" lon="7.34775">
        <ele>195.347763</ele>
        <time>2010-06-22T16:34:18Z</time>
      </trkpt>
      <trkpt lat="48.73839" lon="7.34759">
        <ele>195.867294</ele>
        <time>2010-06-22T16:34:21Z</time>
      </trkpt>
      <trkpt lat="48.73827" lon="7.34749">
        <ele>196.472763</ele>
        <time>2010-06-22T16:34:23Z</time>
      </trkpt>
      <trkpt lat="48.73811" lon="7.34734">
        <ele>197.519638</ele>
        <time>2010-06-22T16:34:26Z</time>
      </trkpt>
      <trkpt lat="48.73793" lon="7.34722">
        <ele>197.238388</ele>
        <time>2010-06-22T16:34:29Z</time>
      </trkpt>
      <trkpt lat="48.73775" lon="7.34711">
        <ele>195.785263</ele>
        <time>2010-06-22T16:34:32Z</time>
      </trkpt>
      <trkpt lat="48.73757" lon="7.34699">
        <ele>195.511826</ele>
        <time>2010-06-22T16:34:35Z</time>
      </trkpt>
      <trkpt lat="48.7374" lon="7.34684">
        <ele>196.328232</ele>
        <time>2010-06-22T16:34:38Z</time>
      </trkpt>
      <trkpt lat="48.73725" lon="7.34665">
        <ele>196.839951</ele>
        <time>2010-06-22T16:34:41Z</time>
      </trkpt>
      <trkpt lat="48.73711" lon="7.34646">
        <ele>197.390732</ele>
        <time>2010-06-22T16:34:44Z</time>
      </trkpt>
      <trkpt lat="48.737" lon="7.34632">
        <ele>197.980576</ele>
        <time>2010-06-22T16:34:46Z</time>
      </trkpt>
      <trkpt lat="48.7369" lon="7.34619">
        <ele>198.449326</ele>
        <time>2010-06-22T16:34:48Z</time>
      </trkpt>
      <trkpt lat="48.73676" lon="7.34597">
        <ele>199.648544</ele>
        <time>2010-06-22T16:34:51Z</time>
      </trkpt>
      <trkpt lat="48.73664" lon="7.34587">
        <ele>199.441513</ele>
        <time>2010-06-22T16:34:53Z</time>
      </trkpt>
      <trkpt lat="48.73651" lon="7.34564">
        <ele>199.800888</ele>
        <time>2010-06-22T16:34:56Z</time>
      </trkpt>
      <trkpt lat="48.7364" lon="7.34549">
        <ele>200.218857</ele>
        <time>2010-06-22T16:34:58Z</time>
      </trkpt>
      <trkpt lat="48.73627" lon="7.34525">
        <ele>200.984482</ele>
        <time>2010-06-22T16:35:01Z</time>
      </trkpt>
      <trkpt lat="48.73613" lon="7.34502">
        <ele>201.468857</ele>
        <time>2010-06-22T16:35:04Z</time>
      </trkpt>
      <trkpt lat="48.736" lon="7.34479">
        <ele>201.183701</ele>
        <time>2010-06-22T16:35:07Z</time>
      </trkpt>
      <trkpt lat="48.73591" lon="7.34463">
        <ele>201.359482</ele>
        <time>2010-06-22T16:35:09Z</time>
      </trkpt>
      <trkpt lat="48.73581" lon="7.34438">
        <ele>201.457138</ele>
        <time>2010-06-22T16:35:12Z</time>
      </trkpt>
      <trkpt lat="48.73573" lon="7.34413">
        <ele>200.695419</ele>
        <time>2010-06-22T16:35:15Z</time>
      </trkpt>
      <trkpt lat="48.73564" lon="7.3439">
        <ele>199.074326</ele>
        <time>2010-06-22T16:35:18Z</time>
      </trkpt>
      <trkpt lat="48.73554" lon="7.34366">
        <ele>197.191513</ele>
        <time>2010-06-22T16:35:21Z</time>
      </trkpt>
      <trkpt lat="48.73545" lon="7.34342">
        <ele>195.593857</ele>
        <time>2010-06-22T16:35:24Z</time>
      </trkpt>
      <trkpt lat="48.73534" lon="7.34321">
        <ele>193.168076</ele>
        <time>2010-06-22T16:35:27Z</time>
      </trkpt>
      <trkpt lat="48.73521" lon="7.34299">
        <ele>190.418076</ele>
        <time>2010-06-22T16:35:30Z</time>
      </trkpt>
      <trkpt lat="48.7351" lon="7.34285">
        <ele>188.711044</ele>
        <time>2010-06-22T16:35:32Z</time>
      </trkpt>
      <trkpt lat="48.73497" lon="7.34263">
        <ele>186.214951</ele>
        <time>2010-06-22T16:35:35Z</time>
      </trkpt>
      <trkpt lat="48.73484" lon="7.34242">
        <ele>184.476669</ele>
        <time>2010-06-22T16:35:38Z</time>
      </trkpt>
      <trkpt lat="48.73473" lon="7.34229">
        <ele>183.664169</ele>
        <time>2010-06-22T16:35:40Z</time>
      </trkpt>
      <trkpt lat="48.73456" lon="7.34221">
        <ele>181.953232</ele>
        <time>2010-06-22T16:35:43Z</time>
      </trkpt>
      <trkpt lat="48.73441" lon="7.34211">
        <ele>182.593857</ele>
        <time>2010-06-22T16:35:45Z</time>
      </trkpt>
      <trkpt lat="48.7343" lon="7.34198">
        <ele>181.441513</ele>
        <time>2010-06-22T16:35:47Z</time>
      </trkpt>
      <trkpt lat="48.73414" lon="7.34182">
        <ele>179.609482</ele>
        <time>2010-06-22T16:35:50Z</time>
      </trkpt>
      <trkpt lat="48.73401" lon="7.34173">
        <ele>179.875107</ele>
        <time>2010-06-22T16:35:52Z</time>
      </trkpt>
      <trkpt lat="48.73386" lon="7.34159">
        <ele>179.093857</ele>
        <time>2010-06-22T16:35:55Z</time>
      </trkpt>
      <trkpt lat="48.73371" lon="7.34153">
        <ele>178.671982</ele>
        <time>2010-06-22T16:35:57Z</time>
      </trkpt>
      <trkpt lat="48.73353" lon="7.34146">
        <ele>179.711044</ele>
        <time>2010-06-22T16:35:59Z</time>
      </trkpt>
      <trkpt lat="48.7334" lon="7.34138">
        <ele>178.851669</ele>
        <time>2010-06-22T16:36:01Z</time>
      </trkpt>
      <trkpt lat="48.73325" lon="7.34131">
        <ele>179.000107</ele>
        <time>2010-06-22T16:36:03Z</time>
      </trkpt>
      <trkpt lat="48.73311" lon="7.34123">
        <ele>179.464951</ele>
        <time>2010-06-22T16:36:05Z</time>
      </trkpt>
      <trkpt lat="48.73297" lon="7.34114">
        <ele>179.679794</ele>
        <time>2010-06-22T16:36:07Z</time>
      </trkpt>
      <trkpt lat="48.73284" lon="7.34104">
        <ele>179.097763</ele>
        <time>2010-06-22T16:36:09Z</time>
      </trkpt>
      <trkpt lat="48.73273" lon="7.34092">
        <ele>177.925888</ele>
        <time>2010-06-22T16:36:11Z</time>
      </trkpt>
      <trkpt lat="48.73261" lon="7.34072">
        <ele>176.222763</ele>
        <time>2010-06-22T16:36:14Z</time>
      </trkpt>
      <trkpt lat="48.7325" lon="7.34049">
        <ele>174.410263</ele>
        <time>2010-06-22T16:36:17Z</time>
      </trkpt>
      <trkpt lat="48.73238" lon="7.34033">
        <ele>173.156357</ele>
        <time>2010-06-22T16:36:19Z</time>
      </trkpt>
      <trkpt lat="48.7323" lon="7.34015">
        <ele>172.308701</ele>
        <time>2010-06-22T16:36:21Z</time>
      </trkpt>
      <trkpt lat="48.73221" lon="7.33996">
        <ele>172.527451</ele>
        <time>2010-06-22T16:36:23Z</time>
      </trkpt>
      <trkpt lat="48.73194" lon="7.33985">
        <ele>183.925888</ele>
        <time>2010-06-22T16:36:24Z</time>
      </trkpt>
      <trkpt lat="48.73179" lon="7.33966">
        <ele>186.441513</ele>
        <time>2010-06-22T16:36:26Z</time>
      </trkpt>
      <trkpt lat="48.7317" lon="7.33946">
        <ele>187.593857</ele>
        <time>2010-06-22T16:36:28Z</time>
      </trkpt>
      <trkpt lat="48.73156" lon="7.33929">
        <ele>189.117294</ele>
        <time>2010-06-22T16:36:30Z</time>
      </trkpt>
      <trkpt lat="48.7315" lon="7.33909">
        <ele>189.011826</ele>
        <time>2010-06-22T16:36:32Z</time>
      </trkpt>
      <trkpt lat="48.73142" lon="7.33889">
        <ele>189.492294</ele>
        <time>2010-06-22T16:36:34Z</time>
      </trkpt>
      <trkpt lat="48.73135" lon="7.3387">
        <ele>190.160263</ele>
        <time>2010-06-22T16:36:36Z</time>
      </trkpt>
      <trkpt lat="48.73135" lon="7.33848">
        <ele>190.379013</ele>
        <time>2010-06-22T16:36:38Z</time>
      </trkpt>
      <trkpt lat="48.73135" lon="7.33825">
        <ele>191.054794</ele>
        <time>2010-06-22T16:36:40Z</time>
      </trkpt>
      <trkpt lat="48.73134" lon="7.33803">
        <ele>191.820419</ele>
        <time>2010-06-22T16:36:42Z</time>
      </trkpt>
      <trkpt lat="48.73131" lon="7.3378">
        <ele>190.972763</ele>
        <time>2010-06-22T16:36:44Z</time>
      </trkpt>
      <trkpt lat="48.7313" lon="7.33758">
        <ele>191.023544</ele>
        <time>2010-06-22T16:36:46Z</time>
      </trkpt>
      <trkpt lat="48.73129" lon="7.33736">
        <ele>191.234482</ele>
        <time>2010-06-22T16:36:48Z</time>
      </trkpt>
      <trkpt lat="48.73127" lon="7.33714">
        <ele>191.441513</ele>
        <time>2010-06-22T16:36:50Z</time>
      </trkpt>
      <trkpt lat="48.73125" lon="7.33693">
        <ele>191.379013</ele>
        <time>2010-06-22T16:36:52Z</time>
      </trkpt>
      <trkpt lat="48.73121" lon="7.33673">
        <ele>191.261826</ele>
        <time>2010-06-22T16:36:54Z</time>
      </trkpt>
      <trkpt lat="48.73118" lon="7.33652">
        <ele>191.496201</ele>
        <time>2010-06-22T16:36:56Z</time>
      </trkpt>
      <trkpt lat="48.73113" lon="7.33623">
        <ele>191.683701</ele>
        <time>2010-06-22T16:36:59Z</time>
      </trkpt>
      <trkpt lat="48.73109" lon="7.33595">
        <ele>192.132919</ele>
        <time>2010-06-22T16:37:02Z</time>
      </trkpt>
      <trkpt lat="48.7311" lon="7.33567">
        <ele>193.007919</ele>
        <time>2010-06-22T16:37:05Z</time>
      </trkpt>
      <trkpt lat="48.73106" lon="7.3354">
        <ele>193.836044</ele>
        <time>2010-06-22T16:37:08Z</time>
      </trkpt>
      <trkpt lat="48.731" lon="7.33515">
        <ele>194.707138</ele>
        <time>2010-06-22T16:37:11Z</time>
      </trkpt>
      <trkpt lat="48.73095" lon="7.33493">
        <ele>195.043076</ele>
        <time>2010-06-22T16:37:14Z</time>
      </trkpt>
      <trkpt lat="48.73092" lon="7.33472">
        <ele>195.242294</ele>
        <time>2010-06-22T16:37:17Z</time>
      </trkpt>
      <trkpt lat="48.73084" lon="7.33451">
        <ele>194.992294</ele>
        <time>2010-06-22T16:37:20Z</time>
      </trkpt>
      <trkpt lat="48.73077" lon="7.33427">
        <ele>194.554794</ele>
        <time>2010-06-22T16:37:23Z</time>
      </trkpt>
      <trkpt lat="48.73073" lon="7.33404">
        <ele>194.761826</ele>
        <time>2010-06-22T16:37:26Z</time>
      </trkpt>
      <trkpt lat="48.73068" lon="7.3338">
        <ele>194.699326</ele>
        <time>2010-06-22T16:37:29Z</time>
      </trkpt>
      <trkpt lat="48.7306" lon="7.33357">
        <ele>195.230576</ele>
        <time>2010-06-22T16:37:32Z</time>
      </trkpt>
      <trkpt lat="48.73051" lon="7.33336">
        <ele>195.582138</ele>
        <time>2010-06-22T16:37:35Z</time>
      </trkpt>
      <trkpt lat="48.73039" lon="7.33316">
        <ele>195.757919</ele>
        <time>2010-06-22T16:37:38Z</time>
      </trkpt>
      <trkpt lat="48.73026" lon="7.33298">
        <ele>196.324326</ele>
        <time>2010-06-22T16:37:41Z</time>
      </trkpt>
      <trkpt lat="48.73011" lon="7.33284">
        <ele>196.226669</ele>
        <time>2010-06-22T16:37:44Z</time>
      </trkpt>
      <trkpt lat="48.72995" lon="7.33272">
        <ele>196.355576</ele>
        <time>2010-06-22T16:37:47Z</time>
      </trkpt>
      <trkpt lat="48.72978" lon="7.33263">
        <ele>196.554794</ele>
        <time>2010-06-22T16:37:50Z</time>
      </trkpt>
      <trkpt lat="48.72961" lon="7.33254">
        <ele>196.843857</ele>
        <time>2010-06-22T16:37:53Z</time>
      </trkpt>
      <trkpt lat="48.72947" lon="7.33249">
        <ele>196.843857</ele>
        <time>2010-06-22T16:37:55Z</time>
      </trkpt>
      <trkpt lat="48.72934" lon="7.33244">
        <ele>196.996201</ele>
        <time>2010-06-22T16:37:57Z</time>
      </trkpt>
      <trkpt lat="48.72915" lon="7.33238">
        <ele>197.574326</ele>
        <time>2010-06-22T16:38:00Z</time>
      </trkpt>
      <trkpt lat="48.72898" lon="7.33232">
        <ele>197.824326</ele>
        <time>2010-06-22T16:38:03Z</time>
      </trkpt>
      <trkpt lat="48.72879" lon="7.33226">
        <ele>197.769638</ele>
        <time>2010-06-22T16:38:06Z</time>
      </trkpt>
      <trkpt lat="48.72866" lon="7.33221">
        <ele>198.324326</ele>
        <time>2010-06-22T16:38:08Z</time>
      </trkpt>
      <trkpt lat="48.72853" lon="7.33215">
        <ele>198.601669</ele>
        <time>2010-06-22T16:38:10Z</time>
      </trkpt>
      <trkpt lat="48.7284" lon="7.33207">
        <ele>199.097763</ele>
        <time>2010-06-22T16:38:12Z</time>
      </trkpt>
      <trkpt lat="48.72827" lon="7.33199">
        <ele>199.070419</ele>
        <time>2010-06-22T16:38:14Z</time>
      </trkpt>
      <trkpt lat="48.72814" lon="7.3319">
        <ele>199.558701</ele>
        <time>2010-06-22T16:38:16Z</time>
      </trkpt>
      <trkpt lat="48.72802" lon="7.33179">
        <ele>199.820419</ele>
        <time>2010-06-22T16:38:18Z</time>
      </trkpt>
      <trkpt lat="48.72789" lon="7.3317">
        <ele>199.898544</ele>
        <time>2010-06-22T16:38:20Z</time>
      </trkpt>
      <trkpt lat="48.72773" lon="7.33154">
        <ele>200.144638</ele>
        <time>2010-06-22T16:38:23Z</time>
      </trkpt>
      <trkpt lat="48.72756" lon="7.33137">
        <ele>199.992294</ele>
        <time>2010-06-22T16:38:26Z</time>
      </trkpt>
      <trkpt lat="48.72742" lon="7.33118">
        <ele>199.679794</ele>
        <time>2010-06-22T16:38:29Z</time>
      </trkpt>
      <trkpt lat="48.72728" lon="7.33099">
        <ele>199.609482</ele>
        <time>2010-06-22T16:38:32Z</time>
      </trkpt>
      <trkpt lat="48.72716" lon="7.33078">
        <ele>199.484482</ele>
        <time>2010-06-22T16:38:35Z</time>
      </trkpt>
      <trkpt lat="48.72705" lon="7.33056">
        <ele>199.488388</ele>
        <time>2010-06-22T16:38:38Z</time>
      </trkpt>
      <trkpt lat="48.72695" lon="7.33032">
        <ele>199.234482</ele>
        <time>2010-06-22T16:38:41Z</time>
      </trkpt>
      <trkpt lat="48.72686" lon="7.33007">
        <ele>199.316513</ele>
        <time>2010-06-22T16:38:44Z</time>
      </trkpt>
      <trkpt lat="48.72678" lon="7.32983">
        <ele>199.371201</ele>
        <time>2010-06-22T16:38:47Z</time>
      </trkpt>
      <trkpt lat="48.72671" lon="7.32958">
        <ele>199.527451</ele>
        <time>2010-06-22T16:38:50Z</time>
      </trkpt>
      <trkpt lat="48.72665" lon="7.32933">
        <ele>199.367294</ele>
        <time>2010-06-22T16:38:53Z</time>
      </trkpt>
      <trkpt lat="48.72659" lon="7.32907">
        <ele>199.175888</ele>
        <time>2010-06-22T16:38:56Z</time>
      </trkpt>
      <trkpt lat="48.72656" lon="7.32881">
        <ele>198.988388</ele>
        <time>2010-06-22T16:38:59Z</time>
      </trkpt>
      <trkpt lat="48.72653" lon="7.32854">
        <ele>199.211044</ele>
        <time>2010-06-22T16:39:02Z</time>
      </trkpt>
      <trkpt lat="48.72649" lon="7.32829">
        <ele>199.402451</ele>
        <time>2010-06-22T16:39:05Z</time>
      </trkpt>
      <trkpt lat="48.72646" lon="7.32802">
        <ele>199.332138</ele>
        <time>2010-06-22T16:39:08Z</time>
      </trkpt>
      <trkpt lat="48.72643" lon="7.32774">
        <ele>199.488388</ele>
        <time>2010-06-22T16:39:11Z</time>
      </trkpt>
      <trkpt lat="48.7264" lon="7.32748">
        <ele>199.687607</ele>
        <time>2010-06-22T16:39:14Z</time>
      </trkpt>
      <trkpt lat="48.72636" lon="7.32721">
        <ele>199.816513</ele>
        <time>2010-06-22T16:39:17Z</time>
      </trkpt>
      <trkpt lat="48.72633" lon="7.32694">
        <ele>199.425888</ele>
        <time>2010-06-22T16:39:20Z</time>
      </trkpt>
      <trkpt lat="48.72628" lon="7.32668">
        <ele>199.039169</ele>
        <time>2010-06-22T16:39:23Z</time>
      </trkpt>
      <trkpt lat="48.72622" lon="7.32643">
        <ele>199.019638</ele>
        <time>2010-06-22T16:39:26Z</time>
      </trkpt>
      <trkpt lat="48.72614" lon="7.32618">
        <ele>198.777451</ele>
        <time>2010-06-22T16:39:29Z</time>
      </trkpt>
      <trkpt lat="48.72606" lon="7.32594">
        <ele>198.363388</ele>
        <time>2010-06-22T16:39:32Z</time>
      </trkpt>
      <trkpt lat="48.72594" lon="7.32572">
        <ele>198.050888</ele>
        <time>2010-06-22T16:39:35Z</time>
      </trkpt>
      <trkpt lat="48.72582" lon="7.3255">
        <ele>197.808701</ele>
        <time>2010-06-22T16:39:38Z</time>
      </trkpt>
      <trkpt lat="48.72569" lon="7.32528">
        <ele>197.203232</ele>
        <time>2010-06-22T16:39:41Z</time>
      </trkpt>
      <trkpt lat="48.72555" lon="7.32508">
        <ele>196.910263</ele>
        <time>2010-06-22T16:39:44Z</time>
      </trkpt>
      <trkpt lat="48.72542" lon="7.32487">
        <ele>196.367294</ele>
        <time>2010-06-22T16:39:47Z</time>
      </trkpt>
      <trkpt lat="48.72528" lon="7.32467">
        <ele>196.254013</ele>
        <time>2010-06-22T16:39:50Z</time>
      </trkpt>
      <trkpt lat="48.72514" lon="7.32446">
        <ele>195.859482</ele>
        <time>2010-06-22T16:39:53Z</time>
      </trkpt>
      <trkpt lat="48.725" lon="7.32426">
        <ele>195.023544</ele>
        <time>2010-06-22T16:39:56Z</time>
      </trkpt>
      <trkpt lat="48.72487" lon="7.32406">
        <ele>194.711044</ele>
        <time>2010-06-22T16:39:59Z</time>
      </trkpt>
      <trkpt lat="48.72476" lon="7.32392">
        <ele>195.586044</ele>
        <time>2010-06-22T16:40:01Z</time>
      </trkpt>
      <trkpt lat="48.72466" lon="7.32378">
        <ele>195.941513</ele>
        <time>2010-06-22T16:40:03Z</time>
      </trkpt>
      <trkpt lat="48.72455" lon="7.32365">
        <ele>196.859482</ele>
        <time>2010-06-22T16:40:05Z</time>
      </trkpt>
      <trkpt lat="48.72442" lon="7.32344">
        <ele>198.281357</ele>
        <time>2010-06-22T16:40:08Z</time>
      </trkpt>
      <trkpt lat="48.72432" lon="7.32323">
        <ele>198.800888</ele>
        <time>2010-06-22T16:40:11Z</time>
      </trkpt>
      <trkpt lat="48.72419" lon="7.32308">
        <ele>198.890732</ele>
        <time>2010-06-22T16:40:14Z</time>
      </trkpt>
      <trkpt lat="48.72406" lon="7.32297">
        <ele>199.347763</ele>
        <time>2010-06-22T16:40:17Z</time>
      </trkpt>
      <trkpt lat="48.72394" lon="7.32281">
        <ele>199.910263</ele>
        <time>2010-06-22T16:40:20Z</time>
      </trkpt>
      <trkpt lat="48.72382" lon="7.32263">
        <ele>200.004013</ele>
        <time>2010-06-22T16:40:23Z</time>
      </trkpt>
      <trkpt lat="48.72368" lon="7.32245">
        <ele>199.941513</ele>
        <time>2010-06-22T16:40:26Z</time>
      </trkpt>
      <trkpt lat="48.72355" lon="7.32225">
        <ele>199.925888</ele>
        <time>2010-06-22T16:40:29Z</time>
      </trkpt>
      <trkpt lat="48.72341" lon="7.32206">
        <ele>200.636826</ele>
        <time>2010-06-22T16:40:32Z</time>
      </trkpt>
      <trkpt lat="48.72329" lon="7.32188">
        <ele>200.855576</ele>
        <time>2010-06-22T16:40:35Z</time>
      </trkpt>
      <trkpt lat="48.72315" lon="7.32169">
        <ele>201.156357</ele>
        <time>2010-06-22T16:40:38Z</time>
      </trkpt>
      <trkpt lat="48.72303" lon="7.32151">
        <ele>201.066513</ele>
        <time>2010-06-22T16:40:41Z</time>
      </trkpt>
      <trkpt lat="48.7229" lon="7.32132">
        <ele>201.320419</ele>
        <time>2010-06-22T16:40:44Z</time>
      </trkpt>
      <trkpt lat="48.72278" lon="7.32113">
        <ele>201.418076</ele>
        <time>2010-06-22T16:40:47Z</time>
      </trkpt>
      <trkpt lat="48.72266" lon="7.32092">
        <ele>201.461044</ele>
        <time>2010-06-22T16:40:50Z</time>
      </trkpt>
      <trkpt lat="48.72254" lon="7.32072">
        <ele>201.398544</ele>
        <time>2010-06-22T16:40:53Z</time>
      </trkpt>
      <trkpt lat="48.72243" lon="7.32051">
        <ele>200.918076</ele>
        <time>2010-06-22T16:40:56Z</time>
      </trkpt>
      <trkpt lat="48.72232" lon="7.32028">
        <ele>200.941513</ele>
        <time>2010-06-22T16:40:59Z</time>
      </trkpt>
      <trkpt lat="48.72222" lon="7.32004">
        <ele>200.476669</ele>
        <time>2010-06-22T16:41:02Z</time>
      </trkpt>
      <trkpt lat="48.72214" lon="7.31978">
        <ele>199.910263</ele>
        <time>2010-06-22T16:41:05Z</time>
      </trkpt>
      <trkpt lat="48.72205" lon="7.31952">
        <ele>199.910263</ele>
        <time>2010-06-22T16:41:08Z</time>
      </trkpt>
      <trkpt lat="48.72198" lon="7.31927">
        <ele>199.730576</ele>
        <time>2010-06-22T16:41:11Z</time>
      </trkpt>
      <trkpt lat="48.72193" lon="7.31901">
        <ele>199.894638</ele>
        <time>2010-06-22T16:41:14Z</time>
      </trkpt>
      <trkpt lat="48.7219" lon="7.31874">
        <ele>199.761826</ele>
        <time>2010-06-22T16:41:17Z</time>
      </trkpt>
      <trkpt lat="48.72188" lon="7.31845">
        <ele>199.156357</ele>
        <time>2010-06-22T16:41:20Z</time>
      </trkpt>
      <trkpt lat="48.72185" lon="7.31817">
        <ele>198.961044</ele>
        <time>2010-06-22T16:41:23Z</time>
      </trkpt>
      <trkpt lat="48.72182" lon="7.31788">
        <ele>198.566513</ele>
        <time>2010-06-22T16:41:26Z</time>
      </trkpt>
      <trkpt lat="48.72179" lon="7.31759">
        <ele>198.859482</ele>
        <time>2010-06-22T16:41:29Z</time>
      </trkpt>
      <trkpt lat="48.72176" lon="7.31731">
        <ele>198.769638</ele>
        <time>2010-06-22T16:41:32Z</time>
      </trkpt>
      <trkpt lat="48.72174" lon="7.31703">
        <ele>198.402451</ele>
        <time>2010-06-22T16:41:35Z</time>
      </trkpt>
      <trkpt lat="48.72171" lon="7.31675">
        <ele>198.484482</ele>
        <time>2010-06-22T16:41:38Z</time>
      </trkpt>
      <trkpt lat="48.72167" lon="7.31647">
        <ele>198.699326</ele>
        <time>2010-06-22T16:41:41Z</time>
      </trkpt>
      <trkpt lat="48.72161" lon="7.31624">
        <ele>199.886826</ele>
        <time>2010-06-22T16:41:44Z</time>
      </trkpt>
      <trkpt lat="48.72157" lon="7.316">
        <ele>200.027451</ele>
        <time>2010-06-22T16:41:48Z</time>
      </trkpt>
      <trkpt lat="48.72153" lon="7.3158">
        <ele>200.254013</ele>
        <time>2010-06-22T16:41:52Z</time>
      </trkpt>
      <trkpt lat="48.72147" lon="7.31559">
        <ele>200.675888</ele>
        <time>2010-06-22T16:41:58Z</time>
      </trkpt>
      <trkpt lat="48.72136" lon="7.31541">
        <ele>198.636826</ele>
        <time>2010-06-22T16:42:03Z</time>
      </trkpt>
      <trkpt lat="48.72127" lon="7.31522">
        <ele>198.254013</ele>
        <time>2010-06-22T16:42:07Z</time>
      </trkpt>
      <trkpt lat="48.72121" lon="7.31503">
        <ele>198.441513</ele>
        <time>2010-06-22T16:42:12Z</time>
      </trkpt>
      <trkpt lat="48.72107" lon="7.31492">
        <ele>198.640732</ele>
        <time>2010-06-22T16:42:18Z</time>
      </trkpt>
      <trkpt lat="48.72092" lon="7.31492">
        <ele>199.605576</ele>
        <time>2010-06-22T16:42:23Z</time>
      </trkpt>
      <trkpt lat="48.72078" lon="7.3149">
        <ele>201.757919</ele>
        <time>2010-06-22T16:42:30Z</time>
      </trkpt>
      <trkpt lat="48.72066" lon="7.315">
        <ele>201.660263</ele>
        <time>2010-06-22T16:42:37Z</time>
      </trkpt>
      <trkpt lat="48.72067" lon="7.31522">
        <ele>202.683701</ele>
        <time>2010-06-22T16:42:43Z</time>
      </trkpt>
      <trkpt lat="48.72058" lon="7.31537">
        <ele>202.847763</ele>
        <time>2010-06-22T16:42:54Z</time>
      </trkpt>
      <trkpt lat="48.7205" lon="7.31518">
        <ele>202.707138</ele>
        <time>2010-06-22T16:43:02Z</time>
      </trkpt>
      <trkpt lat="48.72047" lon="7.31497">
        <ele>203.113388</ele>
        <time>2010-06-22T16:43:07Z</time>
      </trkpt>
      <trkpt lat="48.72043" lon="7.31477">
        <ele>204.121201</ele>
        <time>2010-06-22T16:43:12Z</time>
      </trkpt>
      <trkpt lat="48.72036" lon="7.31458">
        <ele>204.437607</ele>
        <time>2010-06-22T16:43:17Z</time>
      </trkpt>
      <trkpt lat="48.72023" lon="7.31444">
        <ele>205.773544</ele>
        <time>2010-06-22T16:43:23Z</time>
      </trkpt>
      <trkpt lat="48.7201" lon="7.31434">
        <ele>205.839951</ele>
        <time>2010-06-22T16:43:29Z</time>
      </trkpt>
      <trkpt lat="48.71998" lon="7.31427">
        <ele>205.832138</ele>
        <time>2010-06-22T16:43:40Z</time>
      </trkpt>
      <trkpt lat="48.71991" lon="7.31408">
        <ele>204.925888</ele>
        <time>2010-06-22T16:43:46Z</time>
      </trkpt>
      <trkpt lat="48.7198" lon="7.31395">
        <ele>204.836044</ele>
        <time>2010-06-22T16:43:50Z</time>
      </trkpt>
      <trkpt lat="48.71967" lon="7.31381">
        <ele>204.074326</ele>
        <time>2010-06-22T16:43:55Z</time>
      </trkpt>
      <trkpt lat="48.71952" lon="7.31373">
        <ele>204.394638</ele>
        <time>2010-06-22T16:43:59Z</time>
      </trkpt>
      <trkpt lat="48.71936" lon="7.31376">
        <ele>204.121201</ele>
        <time>2010-06-22T16:44:03Z</time>
      </trkpt>
      <trkpt lat="48.71924" lon="7.31385">
        <ele>204.316513</ele>
        <time>2010-06-22T16:44:06Z</time>
      </trkpt>
      <trkpt lat="48.71914" lon="7.31401">
        <ele>206.250107</ele>
        <time>2010-06-22T16:44:10Z</time>
      </trkpt>
      <trkpt lat="48.71903" lon="7.31417">
        <ele>209.843857</ele>
        <time>2010-06-22T16:44:14Z</time>
      </trkpt>
      <trkpt lat="48.71891" lon="7.31433">
        <ele>214.379013</ele>
        <time>2010-06-22T16:44:19Z</time>
      </trkpt>
      <trkpt lat="48.71883" lon="7.3145">
        <ele>209.449326</ele>
        <time>2010-06-22T16:44:27Z</time>
      </trkpt>
      <trkpt lat="48.7187" lon="7.31461">
        <ele>209.789169</ele>
        <time>2010-06-22T16:45:57Z</time>
      </trkpt>
      <trkpt lat="48.71856" lon="7.31465">
        <ele>208.890732</ele>
        <time>2010-06-22T16:46:05Z</time>
      </trkpt>
      <trkpt lat="48.71843" lon="7.31461">
        <ele>209.320419</ele>
        <time>2010-06-22T16:46:24Z</time>
      </trkpt>
      <trkpt lat="48.71828" lon="7.31467">
        <ele>211.746201</ele>
        <time>2010-06-22T16:46:29Z</time>
      </trkpt>
      <trkpt lat="48.71814" lon="7.31471">
        <ele>215.191513</ele>
        <time>2010-06-22T16:46:38Z</time>
      </trkpt>
      <trkpt lat="48.71785" lon="7.31472">
        <ele>216.476669</ele>
        <time>2010-06-22T16:46:51Z</time>
      </trkpt>
      <trkpt lat="48.71769" lon="7.31471">
        <ele>217.632919</ele>
        <time>2010-06-22T16:46:55Z</time>
      </trkpt>
      <trkpt lat="48.71754" lon="7.31467">
        <ele>218.125107</ele>
        <time>2010-06-22T16:46:59Z</time>
      </trkpt>
      <trkpt lat="48.71739" lon="7.3146">
        <ele>219.066513</ele>
        <time>2010-06-22T16:47:04Z</time>
      </trkpt>
      <trkpt lat="48.71724" lon="7.3145">
        <ele>219.679794</ele>
        <time>2010-06-22T16:47:09Z</time>
      </trkpt>
      <trkpt lat="48.71711" lon="7.31435">
        <ele>219.964951</ele>
        <time>2010-06-22T16:47:14Z</time>
      </trkpt>
      <trkpt lat="48.717" lon="7.31423">
        <ele>220.496201</ele>
        <time>2010-06-22T16:47:18Z</time>
      </trkpt>
      <trkpt lat="48.7169" lon="7.31409">
        <ele>221.242294</ele>
        <time>2010-06-22T16:47:22Z</time>
      </trkpt>
      <trkpt lat="48.7168" lon="7.31389">
        <ele>221.086044</ele>
        <time>2010-06-22T16:47:27Z</time>
      </trkpt>
      <trkpt lat="48.71669" lon="7.31371">
        <ele>221.320419</ele>
        <time>2010-06-22T16:47:32Z</time>
      </trkpt>
      <trkpt lat="48.71658" lon="7.31357">
        <ele>220.550888</ele>
        <time>2010-06-22T16:47:36Z</time>
      </trkpt>
      <trkpt lat="48.7165" lon="7.3134">
        <ele>219.714951</ele>
        <time>2010-06-22T16:47:40Z</time>
      </trkpt>
      <trkpt lat="48.71639" lon="7.31318">
        <ele>219.152451</ele>
        <time>2010-06-22T16:47:45Z</time>
      </trkpt>
      <trkpt lat="48.71629" lon="7.31299">
        <ele>222.621201</ele>
        <time>2010-06-22T16:47:50Z</time>
      </trkpt>
      <trkpt lat="48.71621" lon="7.31281">
        <ele>223.566513</ele>
        <time>2010-06-22T16:47:54Z</time>
      </trkpt>
      <trkpt lat="48.71615" lon="7.31262">
        <ele>223.613388</ele>
        <time>2010-06-22T16:47:58Z</time>
      </trkpt>
      <trkpt lat="48.71606" lon="7.31247">
        <ele>223.550888</ele>
        <time>2010-06-22T16:48:02Z</time>
      </trkpt>
      <trkpt lat="48.71594" lon="7.3123">
        <ele>223.339951</ele>
        <time>2010-06-22T16:48:07Z</time>
      </trkpt>
      <trkpt lat="48.71579" lon="7.3122">
        <ele>222.652451</ele>
        <time>2010-06-22T16:48:12Z</time>
      </trkpt>
      <trkpt lat="48.71566" lon="7.31208">
        <ele>223.652451</ele>
        <time>2010-06-22T16:48:17Z</time>
      </trkpt>
      <trkpt lat="48.71556" lon="7.31194">
        <ele>222.351669</ele>
        <time>2010-06-22T16:48:22Z</time>
      </trkpt>
      <trkpt lat="48.71542" lon="7.31182">
        <ele>223.000107</ele>
        <time>2010-06-22T16:48:27Z</time>
      </trkpt>
      <trkpt lat="48.7153" lon="7.31171">
        <ele>222.082138</ele>
        <time>2010-06-22T16:48:32Z</time>
      </trkpt>
      <trkpt lat="48.71517" lon="7.31162">
        <ele>221.242294</ele>
        <time>2010-06-22T16:48:36Z</time>
      </trkpt>
      <trkpt lat="48.71503" lon="7.31155">
        <ele>225.160263</ele>
        <time>2010-06-22T16:48:40Z</time>
      </trkpt>
      <trkpt lat="48.71489" lon="7.31149">
        <ele>227.410263</ele>
        <time>2010-06-22T16:48:45Z</time>
      </trkpt>
      <trkpt lat="48.71474" lon="7.31146">
        <ele>227.332138</ele>
        <time>2010-06-22T16:48:50Z</time>
      </trkpt>
      <trkpt lat="48.71457" lon="7.31142">
        <ele>229.132919</ele>
        <time>2010-06-22T16:48:55Z</time>
      </trkpt>
      <trkpt lat="48.71441" lon="7.31134">
        <ele>224.535263</ele>
        <time>2010-06-22T16:48:58Z</time>
      </trkpt>
      <trkpt lat="48.71425" lon="7.31128">
        <ele>223.898544</ele>
        <time>2010-06-22T16:49:02Z</time>
      </trkpt>
      <trkpt lat="48.71411" lon="7.31118">
        <ele>225.742294</ele>
        <time>2010-06-22T16:49:06Z</time>
      </trkpt>
      <trkpt lat="48.71401" lon="7.31103">
        <ele>228.808701</ele>
        <time>2010-06-22T16:49:10Z</time>
      </trkpt>
      <trkpt lat="48.71388" lon="7.31087">
        <ele>228.218857</ele>
        <time>2010-06-22T16:49:14Z</time>
      </trkpt>
      <trkpt lat="48.71378" lon="7.3107">
        <ele>228.750107</ele>
        <time>2010-06-22T16:49:18Z</time>
      </trkpt>
      <trkpt lat="48.7137" lon="7.31054">
        <ele>228.953232</ele>
        <time>2010-06-22T16:49:22Z</time>
      </trkpt>
      <trkpt lat="48.7136" lon="7.31035">
        <ele>229.312607</ele>
        <time>2010-06-22T16:49:26Z</time>
      </trkpt>
      <trkpt lat="48.7135" lon="7.31016">
        <ele>228.464951</ele>
        <time>2010-06-22T16:49:30Z</time>
      </trkpt>
      <trkpt lat="48.7134" lon="7.30999">
        <ele>228.586044</ele>
        <time>2010-06-22T16:49:34Z</time>
      </trkpt>
      <trkpt lat="48.71329" lon="7.30984">
        <ele>229.972763</ele>
        <time>2010-06-22T16:49:38Z</time>
      </trkpt>
      <trkpt lat="48.71315" lon="7.30972">
        <ele>230.421982</ele>
        <time>2010-06-22T16:49:42Z</time>
      </trkpt>
      <trkpt lat="48.71302" lon="7.30959">
        <ele>230.441513</ele>
        <time>2010-06-22T16:49:46Z</time>
      </trkpt>
      <trkpt lat="48.71289" lon="7.30944">
        <ele>230.527451</ele>
        <time>2010-06-22T16:49:50Z</time>
      </trkpt>
      <trkpt lat="48.71277" lon="7.30928">
        <ele>231.035263</ele>
        <time>2010-06-22T16:49:54Z</time>
      </trkpt>
      <trkpt lat="48.71266" lon="7.30911">
        <ele>230.230576</ele>
        <time>2010-06-22T16:49:58Z</time>
      </trkpt>
      <trkpt lat="48.71252" lon="7.30897">
        <ele>230.554794</ele>
        <time>2010-06-22T16:50:05Z</time>
      </trkpt>
      <trkpt lat="48.71241" lon="7.30886">
        <ele>231.281357</ele>
        <time>2010-06-22T16:50:10Z</time>
      </trkpt>
      <trkpt lat="48.71229" lon="7.30871">
        <ele>232.273544</ele>
        <time>2010-06-22T16:50:19Z</time>
      </trkpt>
      <trkpt lat="48.71216" lon="7.30862">
        <ele>234.457138</ele>
        <time>2010-06-22T16:50:27Z</time>
      </trkpt>
      <trkpt lat="48.71205" lon="7.3085">
        <ele>235.191513</ele>
        <time>2010-06-22T16:50:42Z</time>
      </trkpt>
      <trkpt lat="48.71192" lon="7.30841">
        <ele>237.996201</ele>
        <time>2010-06-22T16:50:49Z</time>
      </trkpt>
      <trkpt lat="48.71181" lon="7.30829">
        <ele>239.906357</ele>
        <time>2010-06-22T16:50:56Z</time>
      </trkpt>
      <trkpt lat="48.71167" lon="7.30817">
        <ele>240.882919</ele>
        <time>2010-06-22T16:51:03Z</time>
      </trkpt>
      <trkpt lat="48.71154" lon="7.3081">
        <ele>240.984482</ele>
        <time>2010-06-22T16:51:08Z</time>
      </trkpt>
      <trkpt lat="48.71141" lon="7.30803">
        <ele>240.550888</ele>
        <time>2010-06-22T16:51:13Z</time>
      </trkpt>
      <trkpt lat="48.71125" lon="7.30798">
        <ele>245.402451</ele>
        <time>2010-06-22T16:51:18Z</time>
      </trkpt>
      <trkpt lat="48.71111" lon="7.30791">
        <ele>249.761826</ele>
        <time>2010-06-22T16:51:24Z</time>
      </trkpt>
      <trkpt lat="48.71097" lon="7.30786">
        <ele>249.543076</ele>
        <time>2010-06-22T16:51:29Z</time>
      </trkpt>
      <trkpt lat="48.71082" lon="7.30789">
        <ele>249.554794</ele>
        <time>2010-06-22T16:51:33Z</time>
      </trkpt>
      <trkpt lat="48.71065" lon="7.30789">
        <ele>249.816513</ele>
        <time>2010-06-22T16:51:37Z</time>
      </trkpt>
      <trkpt lat="48.7105" lon="7.30795">
        <ele>249.074326</ele>
        <time>2010-06-22T16:51:40Z</time>
      </trkpt>
      <trkpt lat="48.71033" lon="7.30803">
        <ele>246.464951</ele>
        <time>2010-06-22T16:51:43Z</time>
      </trkpt>
      <trkpt lat="48.71017" lon="7.30815">
        <ele>243.250107</ele>
        <time>2010-06-22T16:51:46Z</time>
      </trkpt>
      <trkpt lat="48.71005" lon="7.30824">
        <ele>240.265732</ele>
        <time>2010-06-22T16:51:51Z</time>
      </trkpt>
      <trkpt lat="48.70994" lon="7.3084">
        <ele>237.652451</ele>
        <time>2010-06-22T16:51:57Z</time>
      </trkpt>
      <trkpt lat="48.70988" lon="7.3086">
        <ele>236.468857</ele>
        <time>2010-06-22T16:52:02Z</time>
      </trkpt>
      <trkpt lat="48.70977" lon="7.30875">
        <ele>240.996201</ele>
        <time>2010-06-22T16:52:07Z</time>
      </trkpt>
      <trkpt lat="48.70971" lon="7.30891">
        <ele>236.011826</ele>
        <time>2010-06-22T16:52:15Z</time>
      </trkpt>
      <trkpt lat="48.70956" lon="7.30901">
        <ele>237.574326</ele>
        <time>2010-06-22T16:53:38Z</time>
      </trkpt>
      <trkpt lat="48.70942" lon="7.30907">
        <ele>237.054794</ele>
        <time>2010-06-22T16:53:43Z</time>
      </trkpt>
      <trkpt lat="48.70925" lon="7.30911">
        <ele>237.492294</ele>
        <time>2010-06-22T16:53:49Z</time>
      </trkpt>
      <trkpt lat="48.70911" lon="7.3091">
        <ele>237.328232</ele>
        <time>2010-06-22T16:53:53Z</time>
      </trkpt>
      <trkpt lat="48.70896" lon="7.3091">
        <ele>239.722763</ele>
        <time>2010-06-22T16:53:59Z</time>
      </trkpt>
      <trkpt lat="48.70882" lon="7.30911">
        <ele>243.800888</ele>
        <time>2010-06-22T16:54:07Z</time>
      </trkpt>
      <trkpt lat="48.70868" lon="7.30915">
        <ele>246.976669</ele>
        <time>2010-06-22T16:54:13Z</time>
      </trkpt>
      <trkpt lat="48.70853" lon="7.30919">
        <ele>251.179794</ele>
        <time>2010-06-22T16:54:24Z</time>
      </trkpt>
      <trkpt lat="48.70841" lon="7.30912">
        <ele>253.082138</ele>
        <time>2010-06-22T16:54:29Z</time>
      </trkpt>
      <trkpt lat="48.70828" lon="7.30919">
        <ele>256.343964</ele>
        <time>2010-06-22T16:54:37Z</time>
      </trkpt>
      <trkpt lat="48.7081" lon="7.30923">
        <ele>258.679901</ele>
        <time>2010-06-22T16:54:43Z</time>
      </trkpt>
      <trkpt lat="48.70795" lon="7.30931">
        <ele>261.328339</ele>
        <time>2010-06-22T16:54:49Z</time>
      </trkpt>
      <trkpt lat="48.70781" lon="7.30938">
        <ele>262.062714</ele>
        <time>2010-06-22T16:54:54Z</time>
      </trkpt>
      <trkpt lat="48.70764" lon="7.30939">
        <ele>262.820526</ele>
        <time>2010-06-22T16:54:57Z</time>
      </trkpt>
      <trkpt lat="48.70747" lon="7.30943">
        <ele>264.867401</ele>
        <time>2010-06-22T16:55:02Z</time>
      </trkpt>
      <trkpt lat="48.70731" lon="7.30955">
        <ele>268.297089</ele>
        <time>2010-06-22T16:55:06Z</time>
      </trkpt>
      <trkpt lat="48.70716" lon="7.30962">
        <ele>269.148651</ele>
        <time>2010-06-22T16:55:11Z</time>
      </trkpt>
      <trkpt lat="48.70706" lon="7.30977">
        <ele>266.375214</ele>
        <time>2010-06-22T16:55:15Z</time>
      </trkpt>
      <trkpt lat="48.70696" lon="7.30996">
        <ele>265.703339</ele>
        <time>2010-06-22T16:55:20Z</time>
      </trkpt>
      <trkpt lat="48.70687" lon="7.31011">
        <ele>266.648651</ele>
        <time>2010-06-22T16:55:26Z</time>
      </trkpt>
      <trkpt lat="48.70679" lon="7.31029">
        <ele>264.750214</ele>
        <time>2010-06-22T16:55:30Z</time>
      </trkpt>
      <trkpt lat="48.7067" lon="7.31052">
        <ele>260.179901</ele>
        <time>2010-06-22T16:55:36Z</time>
      </trkpt>
      <trkpt lat="48.70657" lon="7.3106">
        <ele>258.539276</ele>
        <time>2010-06-22T16:55:45Z</time>
      </trkpt>
      <trkpt lat="48.70642" lon="7.31065">
        <ele>257.281464</ele>
        <time>2010-06-22T16:55:53Z</time>
      </trkpt>
      <trkpt lat="48.70628" lon="7.31069">
        <ele>256.828339</ele>
        <time>2010-06-22T16:55:59Z</time>
      </trkpt>
      <trkpt lat="48.70614" lon="7.31067">
        <ele>256.383026</ele>
        <time>2010-06-22T16:56:04Z</time>
      </trkpt>
      <trkpt lat="48.70598" lon="7.31069">
        <ele>255.836044</ele>
        <time>2010-06-22T16:56:09Z</time>
      </trkpt>
      <trkpt lat="48.70582" lon="7.3107">
        <ele>255.699326</ele>
        <time>2010-06-22T16:56:14Z</time>
      </trkpt>
      <trkpt lat="48.70567" lon="7.31073">
        <ele>255.668076</ele>
        <time>2010-06-22T16:56:19Z</time>
      </trkpt>
      <trkpt lat="48.70556" lon="7.31086">
        <ele>256.812714</ele>
        <time>2010-06-22T16:56:22Z</time>
      </trkpt>
      <trkpt lat="48.70546" lon="7.31106">
        <ele>255.550888</ele>
        <time>2010-06-22T16:56:25Z</time>
      </trkpt>
      <trkpt lat="48.70533" lon="7.31114">
        <ele>253.160263</ele>
        <time>2010-06-22T16:56:32Z</time>
      </trkpt>
      <trkpt lat="48.70522" lon="7.31131">
        <ele>252.109482</ele>
        <time>2010-06-22T16:56:39Z</time>
      </trkpt>
      <trkpt lat="48.70511" lon="7.31144">
        <ele>252.152451</ele>
        <time>2010-06-22T16:56:47Z</time>
      </trkpt>
      <trkpt lat="48.70498" lon="7.31154">
        <ele>254.539169</ele>
        <time>2010-06-22T16:56:56Z</time>
      </trkpt>
      <trkpt lat="48.70488" lon="7.31167">
        <ele>255.558701</ele>
        <time>2010-06-22T16:57:02Z</time>
      </trkpt>
      <trkpt lat="48.7048" lon="7.31184">
        <ele>257.125214</ele>
        <time>2010-06-22T16:57:13Z</time>
      </trkpt>
      <trkpt lat="48.70473" lon="7.31204">
        <ele>259.765839</ele>
        <time>2010-06-22T16:57:23Z</time>
      </trkpt>
      <trkpt lat="48.70459" lon="7.31222">
        <ele>262.547089</ele>
        <time>2010-06-22T16:57:31Z</time>
      </trkpt>
      <trkpt lat="48.70459" lon="7.31242">
        <ele>265.250214</ele>
        <time>2010-06-22T16:57:43Z</time>
      </trkpt>
      <trkpt lat="48.70456" lon="7.31262">
        <ele>270.539276</ele>
        <time>2010-06-22T16:58:03Z</time>
      </trkpt>
      <trkpt lat="48.70449" lon="7.31278">
        <ele>275.304901</ele>
        <time>2010-06-22T16:58:14Z</time>
      </trkpt>
      <trkpt lat="48.70446" lon="7.313">
        <ele>275.453339</ele>
        <time>2010-06-22T16:58:25Z</time>
      </trkpt>
      <trkpt lat="48.70441" lon="7.31319">
        <ele>278.148651</ele>
        <time>2010-06-22T16:58:36Z</time>
      </trkpt>
      <trkpt lat="48.7045" lon="7.31334">
        <ele>276.351776</ele>
        <time>2010-06-22T16:59:15Z</time>
      </trkpt>
      <trkpt lat="48.70451" lon="7.31355">
        <ele>279.523651</ele>
        <time>2010-06-22T17:00:46Z</time>
      </trkpt>
      <trkpt lat="48.70445" lon="7.31374">
        <ele>281.172089</ele>
        <time>2010-06-22T17:01:02Z</time>
      </trkpt>
      <trkpt lat="48.70441" lon="7.31394">
        <ele>282.890839</ele>
        <time>2010-06-22T17:01:13Z</time>
      </trkpt>
      <trkpt lat="48.7044" lon="7.31414">
        <ele>286.242401</ele>
        <time>2010-06-22T17:01:26Z</time>
      </trkpt>
      <trkpt lat="48.70437" lon="7.31435">
        <ele>289.203339</ele>
        <time>2010-06-22T17:01:34Z</time>
      </trkpt>
      <trkpt lat="48.70431" lon="7.31455">
        <ele>293.140839</ele>
        <time>2010-06-22T17:01:44Z</time>
      </trkpt>
      <trkpt lat="48.70427" lon="7.31475">
        <ele>295.703339</ele>
        <time>2010-06-22T17:01:54Z</time>
      </trkpt>
      <trkpt lat="48.70422" lon="7.31496">
        <ele>293.297089</ele>
        <time>2010-06-22T17:02:03Z</time>
      </trkpt>
      <trkpt lat="48.70416" lon="7.31515">
        <ele>294.140839</ele>
        <time>2010-06-22T17:02:14Z</time>
      </trkpt>
      <trkpt lat="48.70409" lon="7.31533">
        <ele>291.695526</ele>
        <time>2010-06-22T17:02:29Z</time>
      </trkpt>
      <trkpt lat="48.70401" lon="7.3155">
        <ele>290.258026</ele>
        <time>2010-06-22T17:02:39Z</time>
      </trkpt>
      <trkpt lat="48.70395" lon="7.31569">
        <ele>288.562714</ele>
        <time>2010-06-22T17:02:50Z</time>
      </trkpt>
      <trkpt lat="48.7039" lon="7.31588">
        <ele>287.711151</ele>
        <time>2010-06-22T17:03:01Z</time>
      </trkpt>
      <trkpt lat="48.70382" lon="7.31606">
        <ele>288.109589</ele>
        <time>2010-06-22T17:03:12Z</time>
      </trkpt>
      <trkpt lat="48.70375" lon="7.31625">
        <ele>289.601776</ele>
        <time>2010-06-22T17:03:22Z</time>
      </trkpt>
      <trkpt lat="48.70371" lon="7.31645">
        <ele>290.703339</ele>
        <time>2010-06-22T17:03:31Z</time>
      </trkpt>
      <trkpt lat="48.70367" lon="7.31666">
        <ele>291.742401</ele>
        <time>2010-06-22T17:03:40Z</time>
      </trkpt>
      <trkpt lat="48.70363" lon="7.31689">
        <ele>294.265839</ele>
        <time>2010-06-22T17:03:49Z</time>
      </trkpt>
      <trkpt lat="48.70359" lon="7.31707">
        <ele>297.679901</ele>
        <time>2010-06-22T17:03:58Z</time>
      </trkpt>
      <trkpt lat="48.70353" lon="7.31727">
        <ele>300.109589</ele>
        <time>2010-06-22T17:04:08Z</time>
      </trkpt>
      <trkpt lat="48.7035" lon="7.31747">
        <ele>299.758026</ele>
        <time>2010-06-22T17:04:21Z</time>
      </trkpt>
      <trkpt lat="48.70343" lon="7.31765">
        <ele>301.383026</ele>
        <time>2010-06-22T17:04:37Z</time>
      </trkpt>
      <trkpt lat="48.70335" lon="7.3178">
        <ele>308.320526</ele>
        <time>2010-06-22T17:04:52Z</time>
      </trkpt>
      <trkpt lat="48.70329" lon="7.318">
        <ele>309.968964</ele>
        <time>2010-06-22T17:05:05Z</time>
      </trkpt>
      <trkpt lat="48.70321" lon="7.31816">
        <ele>315.054901</ele>
        <time>2010-06-22T17:05:21Z</time>
      </trkpt>
      <trkpt lat="48.70313" lon="7.31833">
        <ele>317.976776</ele>
        <time>2010-06-22T17:05:37Z</time>
      </trkpt>
      <trkpt lat="48.70307" lon="7.31852">
        <ele>321.672089</ele>
        <time>2010-06-22T17:05:50Z</time>
      </trkpt>
      <trkpt lat="48.70298" lon="7.31869">
        <ele>325.328339</ele>
        <time>2010-06-22T17:06:05Z</time>
      </trkpt>
      <trkpt lat="48.70289" lon="7.31883">
        <ele>330.101776</ele>
        <time>2010-06-22T17:06:22Z</time>
      </trkpt>
      <trkpt lat="48.70281" lon="7.319">
        <ele>333.086151</ele>
        <time>2010-06-22T17:06:39Z</time>
      </trkpt>
      <trkpt lat="48.70269" lon="7.31911">
        <ele>338.093964</ele>
        <time>2010-06-22T17:06:52Z</time>
      </trkpt>
      <trkpt lat="48.7026" lon="7.31926">
        <ele>340.312714</ele>
        <time>2010-06-22T17:07:04Z</time>
      </trkpt>
      <trkpt lat="48.70253" lon="7.31945">
        <ele>339.031464</ele>
        <time>2010-06-22T17:07:15Z</time>
      </trkpt>
      <trkpt lat="48.70242" lon="7.31957">
        <ele>338.750214</ele>
        <time>2010-06-22T17:07:28Z</time>
      </trkpt>
      <trkpt lat="48.70231" lon="7.3197">
        <ele>339.968964</ele>
        <time>2010-06-22T17:07:39Z</time>
      </trkpt>
      <trkpt lat="48.70219" lon="7.31983">
        <ele>342.273651</ele>
        <time>2010-06-22T17:07:51Z</time>
      </trkpt>
      <trkpt lat="48.70209" lon="7.31999">
        <ele>343.812714</ele>
        <time>2010-06-22T17:08:00Z</time>
      </trkpt>
      <trkpt lat="48.70202" lon="7.32018">
        <ele>341.992401</ele>
        <time>2010-06-22T17:08:11Z</time>
      </trkpt>
      <trkpt lat="48.70192" lon="7.32036">
        <ele>341.383026</ele>
        <time>2010-06-22T17:08:25Z</time>
      </trkpt>
      <trkpt lat="48.7018" lon="7.32048">
        <ele>344.062714</ele>
        <time>2010-06-22T17:08:33Z</time>
      </trkpt>
      <trkpt lat="48.70167" lon="7.32058">
        <ele>347.515839</ele>
        <time>2010-06-22T17:08:42Z</time>
      </trkpt>
      <trkpt lat="48.70155" lon="7.32067">
        <ele>349.453339</ele>
        <time>2010-06-22T17:08:51Z</time>
      </trkpt>
      <trkpt lat="48.70144" lon="7.32079">
        <ele>353.718964</ele>
        <time>2010-06-22T17:09:03Z</time>
      </trkpt>
      <trkpt lat="48.7013" lon="7.3209">
        <ele>354.140839</ele>
        <time>2010-06-22T17:09:13Z</time>
      </trkpt>
      <trkpt lat="48.70122" lon="7.32106">
        <ele>352.367401</ele>
        <time>2010-06-22T17:09:22Z</time>
      </trkpt>
      <trkpt lat="48.7011" lon="7.32121">
        <ele>356.062714</ele>
        <time>2010-06-22T17:09:36Z</time>
      </trkpt>
      <trkpt lat="48.701" lon="7.32134">
        <ele>357.726776</ele>
        <time>2010-06-22T17:09:46Z</time>
      </trkpt>
      <trkpt lat="48.70091" lon="7.32149">
        <ele>357.500214</ele>
        <time>2010-06-22T17:09:57Z</time>
      </trkpt>
      <trkpt lat="48.70081" lon="7.32164">
        <ele>353.695526</ele>
        <time>2010-06-22T17:10:08Z</time>
      </trkpt>
      <trkpt lat="48.7007" lon="7.32178">
        <ele>350.218964</ele>
        <time>2010-06-22T17:10:17Z</time>
      </trkpt>
      <trkpt lat="48.7006" lon="7.32194">
        <ele>350.695526</ele>
        <time>2010-06-22T17:10:31Z</time>
      </trkpt>
      <trkpt lat="48.70048" lon="7.32203">
        <ele>354.422089</ele>
        <time>2010-06-22T17:10:42Z</time>
      </trkpt>
      <trkpt lat="48.70036" lon="7.32216">
        <ele>357.359589</ele>
        <time>2010-06-22T17:10:53Z</time>
      </trkpt>
      <trkpt lat="48.70024" lon="7.32226">
        <ele>358.086151</ele>
        <time>2010-06-22T17:11:01Z</time>
      </trkpt>
      <trkpt lat="48.70012" lon="7.3224">
        <ele>358.617401</ele>
        <time>2010-06-22T17:11:08Z</time>
      </trkpt>
      <trkpt lat="48.7" lon="7.32253">
        <ele>361.515839</ele>
        <time>2010-06-22T17:11:15Z</time>
      </trkpt>
      <trkpt lat="48.69988" lon="7.32264">
        <ele>362.804901</ele>
        <time>2010-06-22T17:11:22Z</time>
      </trkpt>
      <trkpt lat="48.69976" lon="7.32274">
        <ele>364.093964</ele>
        <time>2010-06-22T17:11:29Z</time>
      </trkpt>
      <trkpt lat="48.69965" lon="7.3229">
        <ele>363.140839</ele>
        <time>2010-06-22T17:11:37Z</time>
      </trkpt>
      <trkpt lat="48.69954" lon="7.32304">
        <ele>363.492401</ele>
        <time>2010-06-22T17:11:44Z</time>
      </trkpt>
      <trkpt lat="48.69941" lon="7.32316">
        <ele>363.820526</ele>
        <time>2010-06-22T17:11:51Z</time>
      </trkpt>
      <trkpt lat="48.69928" lon="7.32328">
        <ele>366.851776</ele>
        <time>2010-06-22T17:11:59Z</time>
      </trkpt>
      <trkpt lat="48.69917" lon="7.3234">
        <ele>369.937714</ele>
        <time>2010-06-22T17:12:07Z</time>
      </trkpt>
      <trkpt lat="48.69906" lon="7.32352">
        <ele>371.468964</ele>
        <time>2010-06-22T17:12:14Z</time>
      </trkpt>
      <trkpt lat="48.69893" lon="7.32363">
        <ele>372.312714</ele>
        <time>2010-06-22T17:12:23Z</time>
      </trkpt>
      <trkpt lat="48.69883" lon="7.32377">
        <ele>371.914276</ele>
        <time>2010-06-22T17:12:31Z</time>
      </trkpt>
      <trkpt lat="48.69874" lon="7.32393">
        <ele>369.711151</ele>
        <time>2010-06-22T17:12:39Z</time>
      </trkpt>
      <trkpt lat="48.69865" lon="7.32412">
        <ele>370.031464</ele>
        <time>2010-06-22T17:12:47Z</time>
      </trkpt>
      <trkpt lat="48.69857" lon="7.32428">
        <ele>369.601776</ele>
        <time>2010-06-22T17:12:55Z</time>
      </trkpt>
      <trkpt lat="48.69854" lon="7.32447">
        <ele>374.437714</ele>
        <time>2010-06-22T17:14:41Z</time>
      </trkpt>
      <trkpt lat="48.69846" lon="7.32465">
        <ele>372.929901</ele>
        <time>2010-06-22T17:14:53Z</time>
      </trkpt>
      <trkpt lat="48.69838" lon="7.32481">
        <ele>375.922089</ele>
        <time>2010-06-22T17:15:03Z</time>
      </trkpt>
      <trkpt lat="48.69827" lon="7.32494">
        <ele>381.062714</ele>
        <time>2010-06-22T17:15:12Z</time>
      </trkpt>
      <trkpt lat="48.69817" lon="7.32509">
        <ele>385.695526</ele>
        <time>2010-06-22T17:15:19Z</time>
      </trkpt>
      <trkpt lat="48.69807" lon="7.32524">
        <ele>389.250214</ele>
        <time>2010-06-22T17:15:28Z</time>
      </trkpt>
      <trkpt lat="48.69796" lon="7.32537">
        <ele>391.390839</ele>
        <time>2010-06-22T17:15:35Z</time>
      </trkpt>
      <trkpt lat="48.69789" lon="7.32554">
        <ele>390.312714</ele>
        <time>2010-06-22T17:15:41Z</time>
      </trkpt>
      <trkpt lat="48.69779" lon="7.32569">
        <ele>391.375214</ele>
        <time>2010-06-22T17:15:49Z</time>
      </trkpt>
      <trkpt lat="48.69769" lon="7.32575">
        <ele>381.922089</ele>
        <time>2010-06-22T17:16:13Z</time>
      </trkpt>
      <trkpt lat="48.69758" lon="7.32588">
        <ele>379.867401</ele>
        <time>2010-06-22T17:16:22Z</time>
      </trkpt>
      <trkpt lat="48.69744" lon="7.32597">
        <ele>377.336151</ele>
        <time>2010-06-22T17:16:33Z</time>
      </trkpt>
      <trkpt lat="48.6973" lon="7.32598">
        <ele>379.281464</ele>
        <time>2010-06-22T17:16:43Z</time>
      </trkpt>
      <trkpt lat="48.69715" lon="7.32601">
        <ele>379.625214</ele>
        <time>2010-06-22T17:16:53Z</time>
      </trkpt>
      <trkpt lat="48.69701" lon="7.32606">
        <ele>379.890839</ele>
        <time>2010-06-22T17:17:00Z</time>
      </trkpt>
      <trkpt lat="48.69688" lon="7.32614">
        <ele>380.789276</ele>
        <time>2010-06-22T17:17:13Z</time>
      </trkpt>
      <trkpt lat="48.69674" lon="7.32618">
        <ele>384.336151</ele>
        <time>2010-06-22T17:17:23Z</time>
      </trkpt>
      <trkpt lat="48.69662" lon="7.32629">
        <ele>384.703339</ele>
        <time>2010-06-22T17:17:33Z</time>
      </trkpt>
      <trkpt lat="48.69659" lon="7.32649">
        <ele>388.804901</ele>
        <time>2010-06-22T17:17:43Z</time>
      </trkpt>
      <trkpt lat="48.6967" lon="7.32662">
        <ele>390.633026</ele>
        <time>2010-06-22T17:17:51Z</time>
      </trkpt>
      <trkpt lat="48.69675" lon="7.32683">
        <ele>390.570526</ele>
        <time>2010-06-22T17:18:00Z</time>
      </trkpt>
      <trkpt lat="48.69685" lon="7.32699">
        <ele>389.836151</ele>
        <time>2010-06-22T17:18:09Z</time>
      </trkpt>
      <trkpt lat="48.69698" lon="7.32704">
        <ele>393.687714</ele>
        <time>2010-06-22T17:18:30Z</time>
      </trkpt>
      <trkpt lat="48.69709" lon="7.32719">
        <ele>391.890839</ele>
        <time>2010-06-22T17:18:41Z</time>
      </trkpt>
      <trkpt lat="48.69721" lon="7.32734">
        <ele>391.320526</ele>
        <time>2010-06-22T17:18:49Z</time>
      </trkpt>
      <trkpt lat="48.69727" lon="7.32754">
        <ele>389.265839</ele>
        <time>2010-06-22T17:18:57Z</time>
      </trkpt>
      <trkpt lat="48.6973" lon="7.32774">
        <ele>387.429901</ele>
        <time>2010-06-22T17:19:04Z</time>
      </trkpt>
      <trkpt lat="48.6974" lon="7.32791">
        <ele>387.429901</ele>
        <time>2010-06-22T17:19:12Z</time>
      </trkpt>
      <trkpt lat="48.69751" lon="7.32809">
        <ele>389.515839</ele>
        <time>2010-06-22T17:19:18Z</time>
      </trkpt>
      <trkpt lat="48.69762" lon="7.32825">
        <ele>391.711151</ele>
        <time>2010-06-22T17:19:23Z</time>
      </trkpt>
      <trkpt lat="48.69769" lon="7.32843">
        <ele>393.351776</ele>
        <time>2010-06-22T17:19:29Z</time>
      </trkpt>
      <trkpt lat="48.6978" lon="7.32859">
        <ele>395.148651</ele>
        <time>2010-06-22T17:19:34Z</time>
      </trkpt>
      <trkpt lat="48.6979" lon="7.32879">
        <ele>396.875214</ele>
        <time>2010-06-22T17:19:40Z</time>
      </trkpt>
      <trkpt lat="48.698" lon="7.32897">
        <ele>398.648651</ele>
        <time>2010-06-22T17:19:45Z</time>
      </trkpt>
      <trkpt lat="48.69808" lon="7.32916">
        <ele>400.797089</ele>
        <time>2010-06-22T17:19:50Z</time>
      </trkpt>
      <trkpt lat="48.69818" lon="7.32932">
        <ele>402.828339</ele>
        <time>2010-06-22T17:19:55Z</time>
      </trkpt>
      <trkpt lat="48.69829" lon="7.32947">
        <ele>403.586151</ele>
        <time>2010-06-22T17:20:00Z</time>
      </trkpt>
      <trkpt lat="48.69841" lon="7.32961">
        <ele>405.265839</ele>
        <time>2010-06-22T17:20:05Z</time>
      </trkpt>
      <trkpt lat="48.69852" lon="7.32976">
        <ele>408.601776</ele>
        <time>2010-06-22T17:20:10Z</time>
      </trkpt>
      <trkpt lat="48.69865" lon="7.32983">
        <ele>407.054901</ele>
        <time>2010-06-22T17:20:15Z</time>
      </trkpt>
      <trkpt lat="48.69879" lon="7.32991">
        <ele>410.109589</ele>
        <time>2010-06-22T17:20:21Z</time>
      </trkpt>
      <trkpt lat="48.69894" lon="7.32997">
        <ele>411.570526</ele>
        <time>2010-06-22T17:20:26Z</time>
      </trkpt>
      <trkpt lat="48.69909" lon="7.32999">
        <ele>410.906464</ele>
        <time>2010-06-22T17:20:30Z</time>
      </trkpt>
      <trkpt lat="48.69924" lon="7.33001">
        <ele>411.468964</ele>
        <time>2010-06-22T17:20:35Z</time>
      </trkpt>
      <trkpt lat="48.69938" lon="7.33002">
        <ele>415.414276</ele>
        <time>2010-06-22T17:20:40Z</time>
      </trkpt>
      <trkpt lat="48.69952" lon="7.33003">
        <ele>414.804901</ele>
        <time>2010-06-22T17:20:45Z</time>
      </trkpt>
      <trkpt lat="48.69965" lon="7.33003">
        <ele>417.226776</ele>
        <time>2010-06-22T17:20:50Z</time>
      </trkpt>
      <trkpt lat="48.6998" lon="7.33001">
        <ele>416.750214</ele>
        <time>2010-06-22T17:20:57Z</time>
      </trkpt>
      <trkpt lat="48.69995" lon="7.32997">
        <ele>419.789276</ele>
        <time>2010-06-22T17:21:02Z</time>
      </trkpt>
      <trkpt lat="48.70009" lon="7.32988">
        <ele>419.672089</ele>
        <time>2010-06-22T17:21:09Z</time>
      </trkpt>
      <trkpt lat="48.70023" lon="7.3298">
        <ele>419.336151</ele>
        <time>2010-06-22T17:21:16Z</time>
      </trkpt>
      <trkpt lat="48.70035" lon="7.32971">
        <ele>420.820526</ele>
        <time>2010-06-22T17:21:25Z</time>
      </trkpt>
      <trkpt lat="48.70048" lon="7.32962">
        <ele>423.062714</ele>
        <time>2010-06-22T17:21:33Z</time>
      </trkpt>
      <trkpt lat="48.70062" lon="7.32956">
        <ele>423.875214</ele>
        <time>2010-06-22T17:21:42Z</time>
      </trkpt>
      <trkpt lat="48.70077" lon="7.32953">
        <ele>424.039276</ele>
        <time>2010-06-22T17:21:49Z</time>
      </trkpt>
      <trkpt lat="48.70092" lon="7.32949">
        <ele>427.750214</ele>
        <time>2010-06-22T17:21:57Z</time>
      </trkpt>
      <trkpt lat="48.70105" lon="7.3294">
        <ele>429.023651</ele>
        <time>2010-06-22T17:22:03Z</time>
      </trkpt>
      <trkpt lat="48.70118" lon="7.32938">
        <ele>431.234589</ele>
        <time>2010-06-22T17:22:09Z</time>
      </trkpt>
      <trkpt lat="48.70132" lon="7.32936">
        <ele>431.390839</ele>
        <time>2010-06-22T17:22:17Z</time>
      </trkpt>
      <trkpt lat="48.70149" lon="7.32934">
        <ele>431.172089</ele>
        <time>2010-06-22T17:22:23Z</time>
      </trkpt>
      <trkpt lat="48.70163" lon="7.32935">
        <ele>434.664276</ele>
        <time>2010-06-22T17:22:28Z</time>
      </trkpt>
      <trkpt lat="48.70179" lon="7.3293">
        <ele>433.343964</ele>
        <time>2010-06-22T17:22:34Z</time>
      </trkpt>
      <trkpt lat="48.70192" lon="7.32928">
        <ele>434.914276</ele>
        <time>2010-06-22T17:22:43Z</time>
      </trkpt>
      <trkpt lat="48.70205" lon="7.32927">
        <ele>439.226776</ele>
        <time>2010-06-22T17:22:52Z</time>
      </trkpt>
      <trkpt lat="48.70219" lon="7.32924">
        <ele>437.414276</ele>
        <time>2010-06-22T17:23:11Z</time>
      </trkpt>
      <trkpt lat="48.70233" lon="7.32923">
        <ele>439.414276</ele>
        <time>2010-06-22T17:23:23Z</time>
      </trkpt>
      <trkpt lat="48.70247" lon="7.32919">
        <ele>437.859589</ele>
        <time>2010-06-22T17:23:31Z</time>
      </trkpt>
      <trkpt lat="48.7026" lon="7.32916">
        <ele>439.078339</ele>
        <time>2010-06-22T17:23:41Z</time>
      </trkpt>
      <trkpt lat="48.70275" lon="7.32915">
        <ele>440.195526</ele>
        <time>2010-06-22T17:23:48Z</time>
      </trkpt>
      <trkpt lat="48.7029" lon="7.32913">
        <ele>441.687714</ele>
        <time>2010-06-22T17:23:55Z</time>
      </trkpt>
      <trkpt lat="48.70307" lon="7.32913">
        <ele>446.320526</ele>
        <time>2010-06-22T17:24:03Z</time>
      </trkpt>
      <trkpt lat="48.70322" lon="7.32913">
        <ele>450.406464</ele>
        <time>2010-06-22T17:24:09Z</time>
      </trkpt>
      <trkpt lat="48.70335" lon="7.32915">
        <ele>453.812714</ele>
        <time>2010-06-22T17:24:16Z</time>
      </trkpt>
      <trkpt lat="48.70349" lon="7.32917">
        <ele>456.312714</ele>
        <time>2010-06-22T17:24:22Z</time>
      </trkpt>
      <trkpt lat="48.70363" lon="7.3292">
        <ele>455.226776</ele>
        <time>2010-06-22T17:24:27Z</time>
      </trkpt>
      <trkpt lat="48.70379" lon="7.3292">
        <ele>455.672089</ele>
        <time>2010-06-22T17:24:33Z</time>
      </trkpt>
      <trkpt lat="48.70392" lon="7.32925">
        <ele>459.078339</ele>
        <time>2010-06-22T17:24:37Z</time>
      </trkpt>
      <trkpt lat="48.70407" lon="7.32925">
        <ele>458.906464</ele>
        <time>2010-06-22T17:24:42Z</time>
      </trkpt>
      <trkpt lat="48.7042" lon="7.32929">
        <ele>461.687714</ele>
        <time>2010-06-22T17:24:47Z</time>
      </trkpt>
      <trkpt lat="48.70433" lon="7.32939">
        <ele>462.765839</ele>
        <time>2010-06-22T17:24:55Z</time>
      </trkpt>
      <trkpt lat="48.70446" lon="7.32944">
        <ele>464.718964</ele>
        <time>2010-06-22T17:25:00Z</time>
      </trkpt>
      <trkpt lat="48.70461" lon="7.32946">
        <ele>467.703339</ele>
        <time>2010-06-22T17:25:06Z</time>
      </trkpt>
      <trkpt lat="48.70475" lon="7.32949">
        <ele>469.211151</ele>
        <time>2010-06-22T17:25:11Z</time>
      </trkpt>
      <trkpt lat="48.70489" lon="7.32952">
        <ele>468.445526</ele>
        <time>2010-06-22T17:25:16Z</time>
      </trkpt>
      <trkpt lat="48.70503" lon="7.32959">
        <ele>471.109589</ele>
        <time>2010-06-22T17:25:23Z</time>
      </trkpt>
      <trkpt lat="48.70516" lon="7.32965">
        <ele>473.875214</ele>
        <time>2010-06-22T17:25:30Z</time>
      </trkpt>
      <trkpt lat="48.7053" lon="7.32973">
        <ele>473.883026</ele>
        <time>2010-06-22T17:25:35Z</time>
      </trkpt>
      <trkpt lat="48.70544" lon="7.32978">
        <ele>476.383026</ele>
        <time>2010-06-22T17:25:41Z</time>
      </trkpt>
      <trkpt lat="48.70557" lon="7.32983">
        <ele>477.343964</ele>
        <time>2010-06-22T17:25:48Z</time>
      </trkpt>
      <trkpt lat="48.70572" lon="7.3298">
        <ele>473.445526</ele>
        <time>2010-06-22T17:26:01Z</time>
      </trkpt>
      <trkpt lat="48.70586" lon="7.32978">
        <ele>472.093964</ele>
        <time>2010-06-22T17:26:11Z</time>
      </trkpt>
      <trkpt lat="48.70604" lon="7.32983">
        <ele>468.148651</ele>
        <time>2010-06-22T17:26:19Z</time>
      </trkpt>
      <trkpt lat="48.70617" lon="7.3299">
        <ele>467.601776</ele>
        <time>2010-06-22T17:26:24Z</time>
      </trkpt>
      <trkpt lat="48.70632" lon="7.32993">
        <ele>468.718964</ele>
        <time>2010-06-22T17:26:29Z</time>
      </trkpt>
      <trkpt lat="48.70647" lon="7.32995">
        <ele>468.187714</ele>
        <time>2010-06-22T17:26:32Z</time>
      </trkpt>
      <trkpt lat="48.70661" lon="7.33003">
        <ele>467.929901</ele>
        <time>2010-06-22T17:26:36Z</time>
      </trkpt>
      <trkpt lat="48.70673" lon="7.33013">
        <ele>468.242401</ele>
        <time>2010-06-22T17:26:39Z</time>
      </trkpt>
      <trkpt lat="48.70684" lon="7.33024">
        <ele>466.047089</ele>
        <time>2010-06-22T17:26:42Z</time>
      </trkpt>
      <trkpt lat="48.70696" lon="7.33037">
        <ele>465.828339</ele>
        <time>2010-06-22T17:26:45Z</time>
      </trkpt>
      <trkpt lat="48.70706" lon="7.33051">
        <ele>464.992401</ele>
        <time>2010-06-22T17:26:48Z</time>
      </trkpt>
      <trkpt lat="48.70718" lon="7.33068">
        <ele>465.047089</ele>
        <time>2010-06-22T17:26:52Z</time>
      </trkpt>
      <trkpt lat="48.7073" lon="7.33084">
        <ele>464.609589</ele>
        <time>2010-06-22T17:26:56Z</time>
      </trkpt>
      <trkpt lat="48.70742" lon="7.331">
        <ele>466.640839</ele>
        <time>2010-06-22T17:27:00Z</time>
      </trkpt>
      <trkpt lat="48.70755" lon="7.33113">
        <ele>466.258026</ele>
        <time>2010-06-22T17:27:03Z</time>
      </trkpt>
      <trkpt lat="48.70768" lon="7.33126">
        <ele>464.172089</ele>
        <time>2010-06-22T17:27:06Z</time>
      </trkpt>
      <trkpt lat="48.7078" lon="7.33139">
        <ele>461.008026</ele>
        <time>2010-06-22T17:27:09Z</time>
      </trkpt>
      <trkpt lat="48.70794" lon="7.3315">
        <ele>459.937714</ele>
        <time>2010-06-22T17:27:12Z</time>
      </trkpt>
      <trkpt lat="48.70807" lon="7.33159">
        <ele>458.711151</ele>
        <time>2010-06-22T17:27:15Z</time>
      </trkpt>
      <trkpt lat="48.7082" lon="7.33168">
        <ele>457.086151</ele>
        <time>2010-06-22T17:27:18Z</time>
      </trkpt>
      <trkpt lat="48.70833" lon="7.33174">
        <ele>456.390839</ele>
        <time>2010-06-22T17:27:21Z</time>
      </trkpt>
      <trkpt lat="48.70845" lon="7.33183">
        <ele>455.062714</ele>
        <time>2010-06-22T17:27:24Z</time>
      </trkpt>
      <trkpt lat="48.7086" lon="7.3319">
        <ele>453.859589</ele>
        <time>2010-06-22T17:27:29Z</time>
      </trkpt>
      <trkpt lat="48.70875" lon="7.33196">
        <ele>454.211151</ele>
        <time>2010-06-22T17:27:32Z</time>
      </trkpt>
      <trkpt lat="48.70889" lon="7.33202">
        <ele>453.000214</ele>
        <time>2010-06-22T17:27:36Z</time>
      </trkpt>
      <trkpt lat="48.70903" lon="7.33207">
        <ele>449.304901</ele>
        <time>2010-06-22T17:27:39Z</time>
      </trkpt>
      <trkpt lat="48.70917" lon="7.33208">
        <ele>444.304901</ele>
        <time>2010-06-22T17:27:42Z</time>
      </trkpt>
      <trkpt lat="48.70933" lon="7.33213">
        <ele>440.781464</ele>
        <time>2010-06-22T17:27:46Z</time>
      </trkpt>
      <trkpt lat="48.70949" lon="7.33222">
        <ele>441.054901</ele>
        <time>2010-06-22T17:27:50Z</time>
      </trkpt>
      <trkpt lat="48.70962" lon="7.33227">
        <ele>441.187714</ele>
        <time>2010-06-22T17:27:53Z</time>
      </trkpt>
      <trkpt lat="48.70979" lon="7.33232">
        <ele>441.625214</ele>
        <time>2010-06-22T17:27:57Z</time>
      </trkpt>
      <trkpt lat="48.70993" lon="7.33238">
        <ele>442.445526</ele>
        <time>2010-06-22T17:28:01Z</time>
      </trkpt>
      <trkpt lat="48.71007" lon="7.3324">
        <ele>443.992401</ele>
        <time>2010-06-22T17:28:06Z</time>
      </trkpt>
      <trkpt lat="48.71024" lon="7.33239">
        <ele>444.906464</ele>
        <time>2010-06-22T17:28:10Z</time>
      </trkpt>
      <trkpt lat="48.71039" lon="7.33234">
        <ele>443.937714</ele>
        <time>2010-06-22T17:28:13Z</time>
      </trkpt>
      <trkpt lat="48.71056" lon="7.33238">
        <ele>442.039276</ele>
        <time>2010-06-22T17:28:17Z</time>
      </trkpt>
      <trkpt lat="48.7107" lon="7.33228">
        <ele>442.750214</ele>
        <time>2010-06-22T17:28:22Z</time>
      </trkpt>
      <trkpt lat="48.71086" lon="7.33223">
        <ele>444.406464</ele>
        <time>2010-06-22T17:28:26Z</time>
      </trkpt>
      <trkpt lat="48.71101" lon="7.33213">
        <ele>446.718964</ele>
        <time>2010-06-22T17:28:30Z</time>
      </trkpt>
      <trkpt lat="48.71114" lon="7.33203">
        <ele>446.851776</ele>
        <time>2010-06-22T17:28:33Z</time>
      </trkpt>
      <trkpt lat="48.7113" lon="7.33191">
        <ele>440.797089</ele>
        <time>2010-06-22T17:28:37Z</time>
      </trkpt>
      <trkpt lat="48.71149" lon="7.33177">
        <ele>432.633026</ele>
        <time>2010-06-22T17:28:40Z</time>
      </trkpt>
      <trkpt lat="48.71166" lon="7.33175">
        <ele>429.515839</ele>
        <time>2010-06-22T17:28:43Z</time>
      </trkpt>
      <trkpt lat="48.71181" lon="7.3317">
        <ele>429.195526</ele>
        <time>2010-06-22T17:28:47Z</time>
      </trkpt>
      <trkpt lat="48.71194" lon="7.33164">
        <ele>429.914276</ele>
        <time>2010-06-22T17:28:52Z</time>
      </trkpt>
      <trkpt lat="48.71207" lon="7.33157">
        <ele>429.906464</ele>
        <time>2010-06-22T17:28:59Z</time>
      </trkpt>
      <trkpt lat="48.7122" lon="7.33149">
        <ele>429.203339</ele>
        <time>2010-06-22T17:29:07Z</time>
      </trkpt>
      <trkpt lat="48.71232" lon="7.3314">
        <ele>428.437714</ele>
        <time>2010-06-22T17:29:12Z</time>
      </trkpt>
      <trkpt lat="48.71247" lon="7.33136">
        <ele>429.047089</ele>
        <time>2010-06-22T17:29:16Z</time>
      </trkpt>
      <trkpt lat="48.71264" lon="7.33133">
        <ele>429.687714</ele>
        <time>2010-06-22T17:29:20Z</time>
      </trkpt>
      <trkpt lat="48.71278" lon="7.33137">
        <ele>430.695526</ele>
        <time>2010-06-22T17:29:25Z</time>
      </trkpt>
      <trkpt lat="48.71291" lon="7.33145">
        <ele>430.773651</ele>
        <time>2010-06-22T17:29:29Z</time>
      </trkpt>
      <trkpt lat="48.71306" lon="7.33146">
        <ele>433.367401</ele>
        <time>2010-06-22T17:29:35Z</time>
      </trkpt>
      <trkpt lat="48.71319" lon="7.33146">
        <ele>433.851776</ele>
        <time>2010-06-22T17:29:40Z</time>
      </trkpt>
      <trkpt lat="48.71334" lon="7.33141">
        <ele>434.468964</ele>
        <time>2010-06-22T17:29:45Z</time>
      </trkpt>
      <trkpt lat="48.71347" lon="7.33134">
        <ele>432.703339</ele>
        <time>2010-06-22T17:29:50Z</time>
      </trkpt>
      <trkpt lat="48.71363" lon="7.33128">
        <ele>431.070526</ele>
        <time>2010-06-22T17:29:54Z</time>
      </trkpt>
      <trkpt lat="48.71377" lon="7.33123">
        <ele>431.468964</ele>
        <time>2010-06-22T17:29:58Z</time>
      </trkpt>
      <trkpt lat="48.71391" lon="7.33122">
        <ele>432.140839</ele>
        <time>2010-06-22T17:30:02Z</time>
      </trkpt>
      <trkpt lat="48.71405" lon="7.33123">
        <ele>431.117401</ele>
        <time>2010-06-22T17:30:08Z</time>
      </trkpt>
      <trkpt lat="48.7142" lon="7.33122">
        <ele>432.367401</ele>
        <time>2010-06-22T17:30:15Z</time>
      </trkpt>
      <trkpt lat="48.71434" lon="7.3312">
        <ele>433.812714</ele>
        <time>2010-06-22T17:30:20Z</time>
      </trkpt>
      <trkpt lat="48.71448" lon="7.33118">
        <ele>433.523651</ele>
        <time>2010-06-22T17:30:26Z</time>
      </trkpt>
      <trkpt lat="48.71462" lon="7.33116">
        <ele>432.984589</ele>
        <time>2010-06-22T17:30:30Z</time>
      </trkpt>
      <trkpt lat="48.71476" lon="7.33114">
        <ele>433.140839</ele>
        <time>2010-06-22T17:30:34Z</time>
      </trkpt>
      <trkpt lat="48.71493" lon="7.33117">
        <ele>433.898651</ele>
        <time>2010-06-22T17:30:38Z</time>
      </trkpt>
      <trkpt lat="48.71508" lon="7.33119">
        <ele>434.179901</ele>
        <time>2010-06-22T17:30:41Z</time>
      </trkpt>
      <trkpt lat="48.71523" lon="7.33124">
        <ele>434.750214</ele>
        <time>2010-06-22T17:30:45Z</time>
      </trkpt>
      <trkpt lat="48.71536" lon="7.33133">
        <ele>434.414276</ele>
        <time>2010-06-22T17:30:49Z</time>
      </trkpt>
      <trkpt lat="48.7155" lon="7.33139">
        <ele>435.640839</ele>
        <time>2010-06-22T17:30:52Z</time>
      </trkpt>
      <trkpt lat="48.71563" lon="7.33146">
        <ele>436.508026</ele>
        <time>2010-06-22T17:30:56Z</time>
      </trkpt>
      <trkpt lat="48.71581" lon="7.33157">
        <ele>437.078339</ele>
        <time>2010-06-22T17:31:00Z</time>
      </trkpt>
      <trkpt lat="48.71595" lon="7.33165">
        <ele>438.539276</ele>
        <time>2010-06-22T17:31:03Z</time>
      </trkpt>
      <trkpt lat="48.71608" lon="7.33176">
        <ele>438.148651</ele>
        <time>2010-06-22T17:31:06Z</time>
      </trkpt>
      <trkpt lat="48.71621" lon="7.33184">
        <ele>438.945526</ele>
        <time>2010-06-22T17:31:09Z</time>
      </trkpt>
      <trkpt lat="48.71635" lon="7.33193">
        <ele>439.062714</ele>
        <time>2010-06-22T17:31:12Z</time>
      </trkpt>
      <trkpt lat="48.71643" lon="7.3321">
        <ele>439.851776</ele>
        <time>2010-06-22T17:31:16Z</time>
      </trkpt>
      <trkpt lat="48.71656" lon="7.33224">
        <ele>440.648651</ele>
        <time>2010-06-22T17:31:20Z</time>
      </trkpt>
      <trkpt lat="48.7167" lon="7.33234">
        <ele>440.945526</ele>
        <time>2010-06-22T17:31:25Z</time>
      </trkpt>
      <trkpt lat="48.71666" lon="7.33257">
        <ele>440.211151</ele>
        <time>2010-06-22T17:31:42Z</time>
      </trkpt>
      <trkpt lat="48.71663" lon="7.33279">
        <ele>439.758026</ele>
        <time>2010-06-22T17:31:47Z</time>
      </trkpt>
      <trkpt lat="48.7167" lon="7.33298">
        <ele>438.836151</ele>
        <time>2010-06-22T17:31:53Z</time>
      </trkpt>
      <trkpt lat="48.71683" lon="7.33305">
        <ele>438.164276</ele>
        <time>2010-06-22T17:32:00Z</time>
      </trkpt>
      <trkpt lat="48.71695" lon="7.3332">
        <ele>436.586151</ele>
        <time>2010-06-22T17:32:05Z</time>
      </trkpt>
      <trkpt lat="48.71708" lon="7.33332">
        <ele>435.976776</ele>
        <time>2010-06-22T17:32:10Z</time>
      </trkpt>
      <trkpt lat="48.7172" lon="7.33346">
        <ele>435.195526</ele>
        <time>2010-06-22T17:32:15Z</time>
      </trkpt>
      <trkpt lat="48.71737" lon="7.33358">
        <ele>434.508026</ele>
        <time>2010-06-22T17:32:19Z</time>
      </trkpt>
      <trkpt lat="48.71749" lon="7.33371">
        <ele>434.437714</ele>
        <time>2010-06-22T17:32:23Z</time>
      </trkpt>
      <trkpt lat="48.71761" lon="7.33386">
        <ele>433.906464</ele>
        <time>2010-06-22T17:32:27Z</time>
      </trkpt>
      <trkpt lat="48.71769" lon="7.33405">
        <ele>432.375214</ele>
        <time>2010-06-22T17:32:33Z</time>
      </trkpt>
      <trkpt lat="48.71778" lon="7.33422">
        <ele>430.867401</ele>
        <time>2010-06-22T17:32:40Z</time>
      </trkpt>
      <trkpt lat="48.71779" lon="7.33441">
        <ele>423.703339</ele>
        <time>2010-06-22T17:33:14Z</time>
      </trkpt>
      <trkpt lat="48.71789" lon="7.33456">
        <ele>417.359589</ele>
        <time>2010-06-22T17:33:26Z</time>
      </trkpt>
      <trkpt lat="48.718" lon="7.33469">
        <ele>412.445526</ele>
        <time>2010-06-22T17:33:36Z</time>
      </trkpt>
      <trkpt lat="48.71812" lon="7.33484">
        <ele>409.187714</ele>
        <time>2010-06-22T17:33:44Z</time>
      </trkpt>
      <trkpt lat="48.71823" lon="7.33497">
        <ele>405.562714</ele>
        <time>2010-06-22T17:33:49Z</time>
      </trkpt>
      <trkpt lat="48.71832" lon="7.33513">
        <ele>402.781464</ele>
        <time>2010-06-22T17:33:54Z</time>
      </trkpt>
      <trkpt lat="48.71841" lon="7.33529">
        <ele>402.070526</ele>
        <time>2010-06-22T17:34:02Z</time>
      </trkpt>
      <trkpt lat="48.71854" lon="7.33546">
        <ele>402.187714</ele>
        <time>2010-06-22T17:34:07Z</time>
      </trkpt>
      <trkpt lat="48.71862" lon="7.33563">
        <ele>401.164276</ele>
        <time>2010-06-22T17:34:11Z</time>
      </trkpt>
      <trkpt lat="48.71874" lon="7.33582">
        <ele>400.445526</ele>
        <time>2010-06-22T17:34:15Z</time>
      </trkpt>
      <trkpt lat="48.71886" lon="7.33598">
        <ele>397.218964</ele>
        <time>2010-06-22T17:34:18Z</time>
      </trkpt>
      <trkpt lat="48.71896" lon="7.33611">
        <ele>395.258026</ele>
        <time>2010-06-22T17:34:22Z</time>
      </trkpt>
      <trkpt lat="48.71907" lon="7.33624">
        <ele>396.101776</ele>
        <time>2010-06-22T17:34:26Z</time>
      </trkpt>
      <trkpt lat="48.71915" lon="7.33642">
        <ele>395.226776</ele>
        <time>2010-06-22T17:34:30Z</time>
      </trkpt>
      <trkpt lat="48.71925" lon="7.33658">
        <ele>393.789276</ele>
        <time>2010-06-22T17:34:33Z</time>
      </trkpt>
      <trkpt lat="48.71933" lon="7.33674">
        <ele>392.836151</ele>
        <time>2010-06-22T17:34:36Z</time>
      </trkpt>
      <trkpt lat="48.71943" lon="7.33693">
        <ele>392.742401</ele>
        <time>2010-06-22T17:34:40Z</time>
      </trkpt>
      <trkpt lat="48.71955" lon="7.33709">
        <ele>392.226776</ele>
        <time>2010-06-22T17:34:44Z</time>
      </trkpt>
      <trkpt lat="48.71965" lon="7.33726">
        <ele>390.976776</ele>
        <time>2010-06-22T17:34:48Z</time>
      </trkpt>
      <trkpt lat="48.7198" lon="7.33744">
        <ele>388.304901</ele>
        <time>2010-06-22T17:34:52Z</time>
      </trkpt>
      <trkpt lat="48.71993" lon="7.33761">
        <ele>386.218964</ele>
        <time>2010-06-22T17:34:55Z</time>
      </trkpt>
      <trkpt lat="48.72004" lon="7.33776">
        <ele>383.000214</ele>
        <time>2010-06-22T17:34:58Z</time>
      </trkpt>
      <trkpt lat="48.72017" lon="7.33789">
        <ele>381.672089</ele>
        <time>2010-06-22T17:35:02Z</time>
      </trkpt>
      <trkpt lat="48.72033" lon="7.33802">
        <ele>378.093964</ele>
        <time>2010-06-22T17:35:05Z</time>
      </trkpt>
      <trkpt lat="48.72044" lon="7.33816">
        <ele>377.062714</ele>
        <time>2010-06-22T17:35:08Z</time>
      </trkpt>
      <trkpt lat="48.72058" lon="7.33829">
        <ele>375.086151</ele>
        <time>2010-06-22T17:35:11Z</time>
      </trkpt>
      <trkpt lat="48.72076" lon="7.33843">
        <ele>372.695526</ele>
        <time>2010-06-22T17:35:14Z</time>
      </trkpt>
      <trkpt lat="48.72094" lon="7.33859">
        <ele>370.765839</ele>
        <time>2010-06-22T17:35:17Z</time>
      </trkpt>
      <trkpt lat="48.72109" lon="7.33871">
        <ele>369.429901</ele>
        <time>2010-06-22T17:35:20Z</time>
      </trkpt>
      <trkpt lat="48.72121" lon="7.33881">
        <ele>367.750214</ele>
        <time>2010-06-22T17:35:22Z</time>
      </trkpt>
      <trkpt lat="48.72141" lon="7.33886">
        <ele>365.148651</ele>
        <time>2010-06-22T17:35:25Z</time>
      </trkpt>
      <trkpt lat="48.72154" lon="7.33895">
        <ele>366.062714</ele>
        <time>2010-06-22T17:35:28Z</time>
      </trkpt>
      <trkpt lat="48.72168" lon="7.33907">
        <ele>365.789276</ele>
        <time>2010-06-22T17:35:31Z</time>
      </trkpt>
      <trkpt lat="48.72181" lon="7.33923">
        <ele>367.265839</ele>
        <time>2010-06-22T17:35:35Z</time>
      </trkpt>
      <trkpt lat="48.72197" lon="7.33937">
        <ele>367.586151</ele>
        <time>2010-06-22T17:35:39Z</time>
      </trkpt>
      <trkpt lat="48.72214" lon="7.33949">
        <ele>369.531464</ele>
        <time>2010-06-22T17:35:42Z</time>
      </trkpt>
      <trkpt lat="48.72227" lon="7.3396">
        <ele>371.406464</ele>
        <time>2010-06-22T17:35:45Z</time>
      </trkpt>
      <trkpt lat="48.72243" lon="7.33974">
        <ele>370.937714</ele>
        <time>2010-06-22T17:35:48Z</time>
      </trkpt>
      <trkpt lat="48.72261" lon="7.33985">
        <ele>370.648651</ele>
        <time>2010-06-22T17:35:51Z</time>
      </trkpt>
      <trkpt lat="48.72276" lon="7.34014">
        <ele>366.351776</ele>
        <time>2010-06-22T17:35:54Z</time>
      </trkpt>
      <trkpt lat="48.7229" lon="7.34028">
        <ele>363.593964</ele>
        <time>2010-06-22T17:35:56Z</time>
      </trkpt>
      <trkpt lat="48.72301" lon="7.3404">
        <ele>362.125214</ele>
        <time>2010-06-22T17:35:58Z</time>
      </trkpt>
      <trkpt lat="48.7231" lon="7.34055">
        <ele>360.851776</ele>
        <time>2010-06-22T17:36:00Z</time>
      </trkpt>
      <trkpt lat="48.72318" lon="7.34074">
        <ele>359.968964</ele>
        <time>2010-06-22T17:36:03Z</time>
      </trkpt>
      <trkpt lat="48.7233" lon="7.34088">
        <ele>358.656464</ele>
        <time>2010-06-22T17:36:04Z</time>
      </trkpt>
      <trkpt lat="48.7234" lon="7.34101">
        <ele>358.164276</ele>
        <time>2010-06-22T17:36:06Z</time>
      </trkpt>
      <trkpt lat="48.72353" lon="7.34117">
        <ele>358.883026</ele>
        <time>2010-06-22T17:36:09Z</time>
      </trkpt>
      <trkpt lat="48.72368" lon="7.34131">
        <ele>359.797089</ele>
        <time>2010-06-22T17:36:10Z</time>
      </trkpt>
      <trkpt lat="48.72379" lon="7.34148">
        <ele>360.922089</ele>
        <time>2010-06-22T17:36:12Z</time>
      </trkpt>
      <trkpt lat="48.72387" lon="7.34165">
        <ele>361.515839</ele>
        <time>2010-06-22T17:36:14Z</time>
      </trkpt>
      <trkpt lat="48.72402" lon="7.34188">
        <ele>363.531464</ele>
        <time>2010-06-22T17:36:17Z</time>
      </trkpt>
      <trkpt lat="48.72418" lon="7.34198">
        <ele>363.070526</ele>
        <time>2010-06-22T17:36:19Z</time>
      </trkpt>
      <trkpt lat="48.7243" lon="7.34213">
        <ele>364.578339</ele>
        <time>2010-06-22T17:36:22Z</time>
      </trkpt>
      <trkpt lat="48.72446" lon="7.34229">
        <ele>365.804901</ele>
        <time>2010-06-22T17:36:25Z</time>
      </trkpt>
      <trkpt lat="48.72458" lon="7.34243">
        <ele>363.508026</ele>
        <time>2010-06-22T17:36:28Z</time>
      </trkpt>
      <trkpt lat="48.72472" lon="7.3425">
        <ele>360.226776</ele>
        <time>2010-06-22T17:36:31Z</time>
      </trkpt>
      <trkpt lat="48.72485" lon="7.34261">
        <ele>359.297089</ele>
        <time>2010-06-22T17:36:34Z</time>
      </trkpt>
      <trkpt lat="48.72498" lon="7.34272">
        <ele>356.703339</ele>
        <time>2010-06-22T17:36:37Z</time>
      </trkpt>
      <trkpt lat="48.72508" lon="7.34288">
        <ele>360.133026</ele>
        <time>2010-06-22T17:36:41Z</time>
      </trkpt>
      <trkpt lat="48.7252" lon="7.34303">
        <ele>358.508026</ele>
        <time>2010-06-22T17:36:45Z</time>
      </trkpt>
      <trkpt lat="48.72534" lon="7.34316">
        <ele>358.414276</ele>
        <time>2010-06-22T17:36:49Z</time>
      </trkpt>
      <trkpt lat="48.72545" lon="7.34331">
        <ele>357.125214</ele>
        <time>2010-06-22T17:36:52Z</time>
      </trkpt>
      <trkpt lat="48.72557" lon="7.34344">
        <ele>356.640839</ele>
        <time>2010-06-22T17:36:55Z</time>
      </trkpt>
      <trkpt lat="48.72569" lon="7.34356">
        <ele>357.101776</ele>
        <time>2010-06-22T17:36:59Z</time>
      </trkpt>
      <trkpt lat="48.72581" lon="7.34375">
        <ele>356.711151</ele>
        <time>2010-06-22T17:37:04Z</time>
      </trkpt>
      <trkpt lat="48.72594" lon="7.34385">
        <ele>355.156464</ele>
        <time>2010-06-22T17:37:06Z</time>
      </trkpt>
      <trkpt lat="48.72606" lon="7.34398">
        <ele>354.664276</ele>
        <time>2010-06-22T17:37:09Z</time>
      </trkpt>
      <trkpt lat="48.72617" lon="7.3441">
        <ele>354.054901</ele>
        <time>2010-06-22T17:37:12Z</time>
      </trkpt>
      <trkpt lat="48.72628" lon="7.34425">
        <ele>353.343964</ele>
        <time>2010-06-22T17:37:16Z</time>
      </trkpt>
      <trkpt lat="48.72639" lon="7.34441">
        <ele>352.664276</ele>
        <time>2010-06-22T17:37:20Z</time>
      </trkpt>
      <trkpt lat="48.72652" lon="7.3446">
        <ele>352.883026</ele>
        <time>2010-06-22T17:37:24Z</time>
      </trkpt>
      <trkpt lat="48.72666" lon="7.34476">
        <ele>351.336151</ele>
        <time>2010-06-22T17:37:28Z</time>
      </trkpt>
      <trkpt lat="48.72678" lon="7.3449">
        <ele>349.406464</ele>
        <time>2010-06-22T17:37:31Z</time>
      </trkpt>
      <trkpt lat="48.72692" lon="7.34505">
        <ele>347.593964</ele>
        <time>2010-06-22T17:37:34Z</time>
      </trkpt>
      <trkpt lat="48.72704" lon="7.34518">
        <ele>346.672089</ele>
        <time>2010-06-22T17:37:37Z</time>
      </trkpt>
      <trkpt lat="48.72718" lon="7.34531">
        <ele>345.851776</ele>
        <time>2010-06-22T17:37:41Z</time>
      </trkpt>
      <trkpt lat="48.72732" lon="7.34548">
        <ele>343.633026</ele>
        <time>2010-06-22T17:37:45Z</time>
      </trkpt>
      <trkpt lat="48.72744" lon="7.34567">
        <ele>343.226776</ele>
        <time>2010-06-22T17:37:49Z</time>
      </trkpt>
      <trkpt lat="48.72755" lon="7.34581">
        <ele>342.226776</ele>
        <time>2010-06-22T17:37:52Z</time>
      </trkpt>
      <trkpt lat="48.72776" lon="7.34598">
        <ele>340.953339</ele>
        <time>2010-06-22T17:37:56Z</time>
      </trkpt>
      <trkpt lat="48.7279" lon="7.34607">
        <ele>341.031464</ele>
        <time>2010-06-22T17:38:00Z</time>
      </trkpt>
      <trkpt lat="48.72805" lon="7.34613">
        <ele>340.859589</ele>
        <time>2010-06-22T17:38:02Z</time>
      </trkpt>
      <trkpt lat="48.7282" lon="7.34619">
        <ele>340.234589</ele>
        <time>2010-06-22T17:38:04Z</time>
      </trkpt>
      <trkpt lat="48.72838" lon="7.34625">
        <ele>339.211151</ele>
        <time>2010-06-22T17:38:07Z</time>
      </trkpt>
      <trkpt lat="48.72851" lon="7.34636">
        <ele>337.711151</ele>
        <time>2010-06-22T17:38:10Z</time>
      </trkpt>
      <trkpt lat="48.72867" lon="7.34648">
        <ele>335.625214</ele>
        <time>2010-06-22T17:38:13Z</time>
      </trkpt>
      <trkpt lat="48.72879" lon="7.34658">
        <ele>333.086151</ele>
        <time>2010-06-22T17:38:16Z</time>
      </trkpt>
      <trkpt lat="48.72894" lon="7.34669">
        <ele>331.343964</ele>
        <time>2010-06-22T17:38:18Z</time>
      </trkpt>
      <trkpt lat="48.7291" lon="7.34683">
        <ele>328.898651</ele>
        <time>2010-06-22T17:38:21Z</time>
      </trkpt>
      <trkpt lat="48.72925" lon="7.34693">
        <ele>327.804901</ele>
        <time>2010-06-22T17:38:24Z</time>
      </trkpt>
      <trkpt lat="48.72937" lon="7.34702">
        <ele>325.789276</ele>
        <time>2010-06-22T17:38:26Z</time>
      </trkpt>
      <trkpt lat="48.7295" lon="7.34717">
        <ele>323.976776</ele>
        <time>2010-06-22T17:38:29Z</time>
      </trkpt>
      <trkpt lat="48.72962" lon="7.34729">
        <ele>322.476776</ele>
        <time>2010-06-22T17:38:31Z</time>
      </trkpt>
      <trkpt lat="48.72978" lon="7.34737">
        <ele>321.679901</ele>
        <time>2010-06-22T17:38:33Z</time>
      </trkpt>
      <trkpt lat="48.72988" lon="7.34755">
        <ele>319.351776</ele>
        <time>2010-06-22T17:38:36Z</time>
      </trkpt>
      <trkpt lat="48.73002" lon="7.34776">
        <ele>316.500214</ele>
        <time>2010-06-22T17:38:40Z</time>
      </trkpt>
      <trkpt lat="48.7301" lon="7.34793">
        <ele>313.656464</ele>
        <time>2010-06-22T17:38:44Z</time>
      </trkpt>
      <trkpt lat="48.73015" lon="7.34814">
        <ele>310.437714</ele>
        <time>2010-06-22T17:38:47Z</time>
      </trkpt>
      <trkpt lat="48.73028" lon="7.34822">
        <ele>308.359589</ele>
        <time>2010-06-22T17:38:49Z</time>
      </trkpt>
      <trkpt lat="48.73044" lon="7.34827">
        <ele>306.422089</ele>
        <time>2010-06-22T17:38:51Z</time>
      </trkpt>
      <trkpt lat="48.73069" lon="7.34826">
        <ele>299.320526</ele>
        <time>2010-06-22T17:38:54Z</time>
      </trkpt>
      <trkpt lat="48.73085" lon="7.34832">
        <ele>295.601776</ele>
        <time>2010-06-22T17:38:56Z</time>
      </trkpt>
      <trkpt lat="48.73099" lon="7.34841">
        <ele>292.554901</ele>
        <time>2010-06-22T17:38:58Z</time>
      </trkpt>
      <trkpt lat="48.73114" lon="7.3485">
        <ele>289.883026</ele>
        <time>2010-06-22T17:39:00Z</time>
      </trkpt>
      <trkpt lat="48.73128" lon="7.34857">
        <ele>287.226776</ele>
        <time>2010-06-22T17:39:02Z</time>
      </trkpt>
      <trkpt lat="48.73141" lon="7.34864">
        <ele>284.703339</ele>
        <time>2010-06-22T17:39:04Z</time>
      </trkpt>
      <trkpt lat="48.73159" lon="7.34877">
        <ele>279.054901</ele>
        <time>2010-06-22T17:39:07Z</time>
      </trkpt>
      <trkpt lat="48.73173" lon="7.34887">
        <ele>277.843964</ele>
        <time>2010-06-22T17:39:09Z</time>
      </trkpt>
      <trkpt lat="48.73188" lon="7.34896">
        <ele>275.898651</ele>
        <time>2010-06-22T17:39:11Z</time>
      </trkpt>
      <trkpt lat="48.73204" lon="7.34907">
        <ele>276.086151</ele>
        <time>2010-06-22T17:39:13Z</time>
      </trkpt>
      <trkpt lat="48.7322" lon="7.34919">
        <ele>274.867401</ele>
        <time>2010-06-22T17:39:15Z</time>
      </trkpt>
      <trkpt lat="48.73235" lon="7.3493">
        <ele>273.062714</ele>
        <time>2010-06-22T17:39:17Z</time>
      </trkpt>
      <trkpt lat="48.7325" lon="7.34939">
        <ele>271.304901</ele>
        <time>2010-06-22T17:39:19Z</time>
      </trkpt>
      <trkpt lat="48.73264" lon="7.34947">
        <ele>270.187714</ele>
        <time>2010-06-22T17:39:21Z</time>
      </trkpt>
      <trkpt lat="48.73275" lon="7.3496">
        <ele>267.765839</ele>
        <time>2010-06-22T17:39:27Z</time>
      </trkpt>
      <trkpt lat="48.73268" lon="7.3498">
        <ele>263.343964</ele>
        <time>2010-06-22T17:39:32Z</time>
      </trkpt>
      <trkpt lat="48.73261" lon="7.35">
        <ele>260.265839</ele>
        <time>2010-06-22T17:39:36Z</time>
      </trkpt>
      <trkpt lat="48.73254" lon="7.35023">
        <ele>258.836151</ele>
        <time>2010-06-22T17:39:40Z</time>
      </trkpt>
      <trkpt lat="48.73245" lon="7.35046">
        <ele>256.828339</ele>
        <time>2010-06-22T17:39:44Z</time>
      </trkpt>
      <trkpt lat="48.73238" lon="7.35067">
        <ele>256.023651</ele>
        <time>2010-06-22T17:39:47Z</time>
      </trkpt>
      <trkpt lat="48.7323" lon="7.35088">
        <ele>254.925888</ele>
        <time>2010-06-22T17:39:51Z</time>
      </trkpt>
      <trkpt lat="48.73223" lon="7.35111">
        <ele>254.660263</ele>
        <time>2010-06-22T17:39:57Z</time>
      </trkpt>
      <trkpt lat="48.73217" lon="7.35131">
        <ele>253.058701</ele>
        <time>2010-06-22T17:40:03Z</time>
      </trkpt>
      <trkpt lat="48.73203" lon="7.35128">
        <ele>253.769638</ele>
        <time>2010-06-22T17:40:18Z</time>
      </trkpt>
      <trkpt lat="48.73185" lon="7.35127">
        <ele>253.062607</ele>
        <time>2010-06-22T17:40:22Z</time>
      </trkpt>
      <trkpt lat="48.73169" lon="7.35139">
        <ele>251.980576</ele>
        <time>2010-06-22T17:40:25Z</time>
      </trkpt>
      <trkpt lat="48.73161" lon="7.35156">
        <ele>250.554794</ele>
        <time>2010-06-22T17:40:27Z</time>
      </trkpt>
      <trkpt lat="48.73154" lon="7.35178">
        <ele>248.656357</ele>
        <time>2010-06-22T17:40:29Z</time>
      </trkpt>
      <trkpt lat="48.73146" lon="7.35203">
        <ele>247.675888</ele>
        <time>2010-06-22T17:40:31Z</time>
      </trkpt>
      <trkpt lat="48.73139" lon="7.35227">
        <ele>246.332138</ele>
        <time>2010-06-22T17:40:33Z</time>
      </trkpt>
      <trkpt lat="48.73132" lon="7.35252">
        <ele>244.523544</ele>
        <time>2010-06-22T17:40:35Z</time>
      </trkpt>
      <trkpt lat="48.73126" lon="7.35274">
        <ele>243.746201</ele>
        <time>2010-06-22T17:40:37Z</time>
      </trkpt>
      <trkpt lat="48.73121" lon="7.35295">
        <ele>243.168076</ele>
        <time>2010-06-22T17:40:39Z</time>
      </trkpt>
      <trkpt lat="48.73115" lon="7.35316">
        <ele>242.285263</ele>
        <time>2010-06-22T17:40:41Z</time>
      </trkpt>
      <trkpt lat="48.73108" lon="7.35337">
        <ele>241.851669</ele>
        <time>2010-06-22T17:40:43Z</time>
      </trkpt>
      <trkpt lat="48.73102" lon="7.35359">
        <ele>241.261826</ele>
        <time>2010-06-22T17:40:45Z</time>
      </trkpt>
      <trkpt lat="48.73096" lon="7.3538">
        <ele>240.523544</ele>
        <time>2010-06-22T17:40:47Z</time>
      </trkpt>
      <trkpt lat="48.73092" lon="7.35402">
        <ele>240.632919</ele>
        <time>2010-06-22T17:40:49Z</time>
      </trkpt>
      <trkpt lat="48.73094" lon="7.35424">
        <ele>240.195419</ele>
        <time>2010-06-22T17:40:51Z</time>
      </trkpt>
      <trkpt lat="48.731" lon="7.35445">
        <ele>239.593857</ele>
        <time>2010-06-22T17:40:53Z</time>
      </trkpt>
      <trkpt lat="48.73109" lon="7.35463">
        <ele>239.781357</ele>
        <time>2010-06-22T17:40:55Z</time>
      </trkpt>
      <trkpt lat="48.73119" lon="7.35481">
        <ele>239.074326</ele>
        <time>2010-06-22T17:40:57Z</time>
      </trkpt>
      <trkpt lat="48.73128" lon="7.35497">
        <ele>238.015732</ele>
        <time>2010-06-22T17:40:59Z</time>
      </trkpt>
      <trkpt lat="48.73143" lon="7.35509">
        <ele>238.046982</ele>
        <time>2010-06-22T17:41:02Z</time>
      </trkpt>
      <trkpt lat="48.73161" lon="7.35511">
        <ele>237.109482</ele>
        <time>2010-06-22T17:41:05Z</time>
      </trkpt>
      <trkpt lat="48.73179" lon="7.35512">
        <ele>236.468857</ele>
        <time>2010-06-22T17:41:08Z</time>
      </trkpt>
      <trkpt lat="48.73189" lon="7.3553">
        <ele>235.754013</ele>
        <time>2010-06-22T17:41:11Z</time>
      </trkpt>
      <trkpt lat="48.73196" lon="7.35557">
        <ele>234.332138</ele>
        <time>2010-06-22T17:41:14Z</time>
      </trkpt>
      <trkpt lat="48.73204" lon="7.35586">
        <ele>233.394638</ele>
        <time>2010-06-22T17:41:17Z</time>
      </trkpt>
      <trkpt lat="48.7321" lon="7.35606">
        <ele>232.519638</ele>
        <time>2010-06-22T17:41:19Z</time>
      </trkpt>
      <trkpt lat="48.73217" lon="7.35627">
        <ele>231.941513</ele>
        <time>2010-06-22T17:41:21Z</time>
      </trkpt>
      <trkpt lat="48.73224" lon="7.35648">
        <ele>231.023544</ele>
        <time>2010-06-22T17:41:23Z</time>
      </trkpt>
      <trkpt lat="48.73232" lon="7.3567">
        <ele>230.254013</ele>
        <time>2010-06-22T17:41:25Z</time>
      </trkpt>
      <trkpt lat="48.73239" lon="7.35692">
        <ele>229.222763</ele>
        <time>2010-06-22T17:41:27Z</time>
      </trkpt>
      <trkpt lat="48.73248" lon="7.35713">
        <ele>228.222763</ele>
        <time>2010-06-22T17:41:29Z</time>
      </trkpt>
      <trkpt lat="48.73255" lon="7.35736">
        <ele>227.765732</ele>
        <time>2010-06-22T17:41:31Z</time>
      </trkpt>
      <trkpt lat="48.73264" lon="7.35762">
        <ele>226.089951</ele>
        <time>2010-06-22T17:41:33Z</time>
      </trkpt>
      <trkpt lat="48.73273" lon="7.35789">
        <ele>225.226669</ele>
        <time>2010-06-22T17:41:35Z</time>
      </trkpt>
      <trkpt lat="48.73284" lon="7.35814">
        <ele>224.660263</ele>
        <time>2010-06-22T17:41:37Z</time>
      </trkpt>
      <trkpt lat="48.73293" lon="7.35838">
        <ele>224.046982</ele>
        <time>2010-06-22T17:41:39Z</time>
      </trkpt>
      <trkpt lat="48.73303" lon="7.35862">
        <ele>223.207138</ele>
        <time>2010-06-22T17:41:41Z</time>
      </trkpt>
      <trkpt lat="48.73312" lon="7.35885">
        <ele>222.398544</ele>
        <time>2010-06-22T17:41:43Z</time>
      </trkpt>
      <trkpt lat="48.73321" lon="7.35908">
        <ele>221.535263</ele>
        <time>2010-06-22T17:41:45Z</time>
      </trkpt>
      <trkpt lat="48.7333" lon="7.3593">
        <ele>220.543076</ele>
        <time>2010-06-22T17:41:47Z</time>
      </trkpt>
      <trkpt lat="48.73339" lon="7.35951">
        <ele>220.089951</ele>
        <time>2010-06-22T17:41:49Z</time>
      </trkpt>
      <trkpt lat="48.73347" lon="7.35973">
        <ele>219.086044</ele>
        <time>2010-06-22T17:41:51Z</time>
      </trkpt>
      <trkpt lat="48.73356" lon="7.35994">
        <ele>218.664169</ele>
        <time>2010-06-22T17:41:53Z</time>
      </trkpt>
      <trkpt lat="48.73365" lon="7.36016">
        <ele>217.472763</ele>
        <time>2010-06-22T17:41:55Z</time>
      </trkpt>
      <trkpt lat="48.73375" lon="7.36039">
        <ele>217.117294</ele>
        <time>2010-06-22T17:41:57Z</time>
      </trkpt>
      <trkpt lat="48.73386" lon="7.3606">
        <ele>216.355576</ele>
        <time>2010-06-22T17:41:59Z</time>
      </trkpt>
      <trkpt lat="48.73396" lon="7.36081">
        <ele>216.222763</ele>
        <time>2010-06-22T17:42:01Z</time>
      </trkpt>
      <trkpt lat="48.73405" lon="7.36097">
        <ele>215.300888</ele>
        <time>2010-06-22T17:42:03Z</time>
      </trkpt>
      <trkpt lat="48.73408" lon="7.36119">
        <ele>215.211044</ele>
        <time>2010-06-22T17:42:09Z</time>
      </trkpt>
      <trkpt lat="48.73389" lon="7.36125">
        <ele>215.554794</ele>
        <time>2010-06-22T17:42:13Z</time>
      </trkpt>
      <trkpt lat="48.7337" lon="7.36118">
        <ele>216.425888</ele>
        <time>2010-06-22T17:42:16Z</time>
      </trkpt>
      <trkpt lat="48.73352" lon="7.36117">
        <ele>217.441513</ele>
        <time>2010-06-22T17:42:19Z</time>
      </trkpt>
      <trkpt lat="48.73341" lon="7.36134">
        <ele>217.539169</ele>
        <time>2010-06-22T17:42:22Z</time>
      </trkpt>
      <trkpt lat="48.73339" lon="7.36163">
        <ele>217.484482</ele>
        <time>2010-06-22T17:42:25Z</time>
      </trkpt>
    </trkseg>
  </trk>
</gpx>